Buoy 48507

sailwx.info

Track history (hours):
 
Tides and Currents Weather Stations Pressure Air Temp Water Temp Dewpoint Dewpoint Depression Visibility Wind Speed Wind Dir Waves Ship Positions

Drifting buoy 48507

Last reported at 2017-Dec-11 16:30 UTC. Time now 2017-Dec-13 16:54 UTC.
Position N 70°28' W 102°18'.

Barometer 1014.8 mb
Air temperature -24.1 ° C

Date/timePositionNaut miles runAvg speedWind from/ knotsBaromVisibWave heightAir tempDewpointWater temp
2017-Dec-11 16:30N 70°28' W 102°18'0 0.0 1014.8 -24.1
2017-Dec-11 16:20N 70°28' W 102°18'0 0.0 1014.8 -24.3
2017-Dec-11 16:10N 70°28' W 102°18'0 0.0 1014.8
2017-Dec-11 15:50N 70°28' W 102°18'0 0.0 1015.1 -24.8
2017-Dec-11 15:40N 70°28' W 102°18'0 2.4 1015.2 -24.9
2017-Dec-11 15:30N 70°28' W 102°17'0 2.4 1015.4 -25.0
2017-Dec-11 15:20N 70°28' W 102°18'0 0.0 1015.5 -25.1
2017-Dec-11 15:10N 70°28' W 102°18'0 0.0 1015.5 -25.3
2017-Dec-11 15:00N 70°28' W 102°18'0 0.0 1015.7 -25.4
2017-Dec-11 14:40N 70°28' W 102°18'0 0.0 1015.9 -25.9
2017-Dec-11 14:30N 70°28' W 102°18'0 0.0 1016.1 -26.1
2017-Dec-11 14:10N 70°28' W 102°18'0 0.6 1016.3 -25.7
2017-Dec-11 13:50N 70°28' W 102°17'0 0.0 1016.3 -25.2
2017-Dec-11 13:30N 70°28' W 102°17'0 1.2 1016.5 -24.8
2017-Dec-11 13:20N 70°28' W 102°18'0 0.0 1016.5 -24.6
2017-Dec-11 13:00N 70°28' W 102°18'0 0.0 1016.5 -24.0
2017-Dec-11 12:50N 70°28' W 102°18'0 0.6 1016.6 -23.7
2017-Dec-11 12:30N 70°28' W 102°17'0 0.4 1016.5 -23.1
2017-Dec-11 12:00N 70°28' W 102°18'0 0.0 1016.3 -22.5
2017-Dec-11 11:50N 70°28' W 102°18'1 3.6 1016.3 -22.5
2017-Dec-11 11:40N 70°28' W 102°20'1 1.2 1016.3 -22.5
2017-Dec-11 11:10N 70°28' W 102°18'0 0.6 1016.6 -22.6
2017-Dec-11 10:50N 70°28' W 102°19'0 0.2 1016.8 -22.7
2017-Dec-11 10:00N 70°28' W 102°18'0 0.0 1017.0 -22.7
2017-Dec-11 09:20N 70°28' W 102°18'0 0.0 1016.9 -22.8
2017-Dec-11 09:10N 70°28' W 102°18'0 0.0 1016.9 -22.8
2017-Dec-11 08:20N 70°28' W 102°18'0 0.0 1016.9 -23.1
2017-Dec-11 08:10N 70°28' W 102°18'0 0.0 1017.0 -23.2
2017-Dec-11 07:40N 70°28' W 102°18'0 0.0 1016.9 -23.3
2017-Dec-11 07:30N 70°28' W 102°18'0 0.1 1017.0 -23.4
2017-Dec-11 06:00N 70°28' W 102°17'0 1.2 1016.9 -24.8
2017-Dec-11 05:50N 70°28' W 102°18'0 0.0 1017.0 -24.9
2017-Dec-11 05:10N 70°28' W 102°18'0 0.2 1017.0 -26.2
2017-Dec-11 04:20N 70°28' W 102°19'1 3.8 1017.0 -27.1
2017-Dec-11 04:10N 70°28' W 102°18'1 1.2 1017.0 -27.2
2017-Dec-11 03:40N 70°28' W 102°18'0 1.2 1017.0 -27.7
2017-Dec-11 03:30N 70°28' W 102°19'0 0.0 1017.0 -27.7
2017-Dec-11 03:20N 70°28' W 102°19'0 0.3 1017.0 -27.7
2017-Dec-11 02:40N 70°28' W 102°18'0 0.0 1017.0 -27.7
2017-Dec-11 02:30N 70°28' W 102°18'0 0.0 1017.0 -27.7
2017-Dec-11 02:00N 70°28' W 102°18'0 0.0 1016.9 -27.6
2017-Dec-11 01:50N 70°28' W 102°18'0 0.0 1016.9 -27.5
2017-Dec-11 01:40N 70°28' W 102°18'1 1.8 1016.9 -27.5
2017-Dec-11 01:20N 70°28' W 102°18'1 1.8 1016.9 -27.3
2017-Dec-11 01:00N 70°28' W 102°18'0 0.0 1016.8 -27.0
2017-Dec-11 00:50N 70°28' W 102°18'0 0.0 1016.8 -26.9
2017-Dec-11 00:20N 70°28' W 102°18'0 1.2 1016.3 -26.2
2017-Dec-11 00:10N 70°28' W 102°17'0 0.0 1016.5 -26.1
2017-Dec-11 00:00N 70°28' W 102°17'0 0.0 1016.3 -25.9
2017-Dec-10 23:40N 70°28' W 102°17'0 0.0 1016.3 -25.5
2017-Dec-10 23:30N 70°28' W 102°17'0 1.2 1016.5 -25.4
2017-Dec-10 23:20N 70°28' W 102°18'0 0.0 1016.5 -25.3
2017-Dec-10 23:10N 70°28' W 102°18'0 0.0 1016.5 -25.2
2017-Dec-10 23:00N 70°28' W 102°18'0 0.0 -25.2
2017-Dec-10 22:40N 70°28' W 102°18'1 3.6 1016.3 -25.4
2017-Dec-10 22:30N 70°28' W 102°18'1 3.8 1016.3 -25.4
2017-Dec-10 22:20N 70°28' W 102°17'0 0.0 1016.3 -25.4
2017-Dec-10 22:00N 70°28' W 102°17'0 1.2 1016.2 -25.2
2017-Dec-10 21:50N 70°28' W 102°18'1 3.8 1016.1 -25.2
2017-Dec-10 21:40N 70°28' W 102°17'1 3.8 1016.1 -25.0
2017-Dec-10 21:30N 70°28' W 102°18'0 0.0 1015.9 -24.9
2017-Dec-10 21:00N 70°28' W 102°18'0 0.0 1015.8 -24.3
2017-Dec-10 20:50N 70°28' W 102°18'0 0.0 -24.1
2017-Dec-10 20:20N 70°28' W 102°18'0 0.0 1015.5 -23.5
2017-Dec-10 20:10N 70°28' W 102°18'0 1.2 1015.5 -23.4
2017-Dec-10 20:00N 70°28' W 102°17'0 1.2 1015.4 -23.3
2017-Dec-10 19:50N 70°28' W 102°18'0 0.0 1015.4 -23.2
2017-Dec-10 19:20N 70°28' W 102°18'0 0.0 1015.2 -22.6
2017-Dec-10 19:10N 70°28' W 102°18'0 0.0 1015.1
2017-Dec-10 19:00N 70°28' W 102°18'0 0.0 1015.0 -21.8
2017-Dec-10 18:40N 70°28' W 102°18'0 0.0 1014.8 -21.5
2017-Dec-10 18:30N 70°28' W 102°18'0 0.0 1014.8 -21.3
2017-Dec-10 18:20N 70°28' W 102°18'0 1.2 1014.7 -21.2
2017-Dec-10 18:10N 70°28' W 102°17'0 0.0 1014.7 -21.2
2017-Dec-10 18:00N 70°28' W 102°17'0 0.0 -21.2
2017-Dec-10 17:40N 70°28' W 102°17'0 0.0 1014.6 -21.4
2017-Dec-10 17:30N 70°28' W 102°17'0 0.0 1014.6 -21.6
2017-Dec-10 17:00N 70°28' W 102°17'0 0.0 1014.3 -21.8
2017-Dec-10 16:50N 70°28' W 102°17'0 0.0 1014.4 -21.8
2017-Dec-10 16:40N 70°28' W 102°17'0 0.0 1014.4 -21.9
2017-Dec-10 16:30N 70°28' W 102°17'0 0.0 1014.6 -22.0
2017-Dec-10 16:20N 70°28' W 102°17'0 0.6 1014.4 -22.2
2017-Dec-10 16:00N 70°28' W 102°18'0 0.0 1014.4 -22.6
2017-Dec-10 15:50N 70°28' W 102°18'0 0.0 1014.3 -22.6
2017-Dec-10 15:40N 70°28' W 102°18'0 0.0 1014.4 -22.7
2017-Dec-10 15:20N 70°28' W 102°18'0 0.0 1014.2 -23.0
2017-Dec-10 15:10N 70°28' W 102°18'0 1.2 1014.2 -23.1
2017-Dec-10 15:00N 70°28' W 102°19'0 1.2 1014.0 -23.0
2017-Dec-10 14:50N 70°28' W 102°18'0 0.0 1014.0 -22.9
2017-Dec-10 14:40N 70°28' W 102°18'0 0.0 1014.0
2017-Dec-10 14:10N 70°28' W 102°18'0 0.0 1013.9 -22.6
2017-Dec-10 13:40N 70°28' W 102°18'0 0.0 1014.0 -22.5
2017-Dec-10 13:30N 70°28' W 102°18'0 0.6 1013.9 -22.5
2017-Dec-10 13:10N 70°28' W 102°19'0 1.2 1013.9 -22.4
2017-Dec-10 13:00N 70°28' W 102°18'0 0.4 1013.9 -22.4
2017-Dec-10 12:30N 70°28' W 102°19'0 1.2 1013.6 -22.4
2017-Dec-10 12:20N 70°28' W 102°18'0 0.6 1013.6 -22.6
2017-Dec-10 12:00N 70°28' W 102°19'0 0.0 1013.5 -22.9
2017-Dec-10 11:50N 70°28' W 102°19'0 0.6 1013.6 -23.1
2017-Dec-10 11:30N 70°28' W 102°18'0 1.2 1013.5 -23.4
2017-Dec-10 11:20N 70°28' W 102°17'0 0.0 1013.5 -23.6
2017-Dec-10 10:40N 70°28' W 102°17'0 0.4 1013.5 -24.4
2017-Dec-10 10:10N 70°28' W 102°18'0 0.6 1013.6 -24.8
2017-Dec-10 09:50N 70°28' W 102°19'0 1.2 1013.6 -25.0
2017-Dec-10 09:40N 70°28' W 102°19'0 0.0 1013.6 -25.1
2017-Dec-10 08:30N 70°28' W 102°19'0 0.6 1013.7 -26.2
2017-Dec-10 08:10N 70°28' W 102°19'0 0.0 1013.7 -26.4
2017-Dec-10 08:00N 70°28' W 102°19'0 0.2 1013.6 -26.5
2017-Dec-10 06:50N 70°28' W 102°18'0 0.0 1013.5 -28.4
2017-Dec-10 06:40N 70°28' W 102°18'0 0.0 1013.5
2017-Dec-10 06:30N 70°28' W 102°18'0 0.0 1013.6 -29.1
2017-Dec-10 06:20N 70°28' W 102°18'0 0.0 1013.7 -29.3
2017-Dec-10 05:40N 70°28' W 102°18'0 0.0 1013.5 -29.9
2017-Dec-10 04:50N 70°28' W 102°18'0 0.0 1013.2 -29.7
2017-Dec-10 04:40N 70°28' W 102°18'0 1.2 1013.2 -29.7
2017-Dec-10 04:30N 70°28' W 102°19'1 3.8 1013.2 -29.6
2017-Dec-10 04:20N 70°28' W 102°18'1 1.8 1013.2 -29.6
2017-Dec-10 04:00N 70°28' W 102°18'0 1.2 1013.2 -29.5
2017-Dec-10 03:50N 70°28' W 102°19'0 0.0 1013.3 -29.5
2017-Dec-10 03:40N 70°28' W 102°19'0 0.4 1013.3
2017-Dec-10 03:10N 70°28' W 102°18'0 1.2 1013.2 -29.3
2017-Dec-10 03:00N 70°28' W 102°19'0 1.2 1013.2 -29.3
2017-Dec-10 02:50N 70°28' W 102°18'0 1.2 1013.2 -29.3
2017-Dec-10 02:40N 70°28' W 102°17'0 0.0 1013.2 -29.4
2017-Dec-10 02:20N 70°28' W 102°17'0 2.4 1013.3 -29.4
2017-Dec-10 02:10N 70°28' W 102°19'0 0.0 1013.3 -29.4
2017-Dec-10 02:00N 70°28' W 102°19'0 0.0 1013.5 -29.5
2017-Dec-10 01:30N 70°28' W 102°19'0 2.4 1013.6 -29.6
2017-Dec-10 01:20N 70°28' W 102°17'0 1.2 1013.6 -29.7
2017-Dec-10 01:10N 70°28' W 102°18'0 1.2 1013.7 -29.7
2017-Dec-10 01:00N 70°28' W 102°17'0 0.0 1013.7 -29.6
2017-Dec-10 00:40N 70°28' W 102°17'0 0.0 1013.9 -29.7
2017-Dec-10 00:30N 70°28' W 102°17'0 0.0 1013.9 -29.7
2017-Dec-10 00:20N 70°28' W 102°17'0 0.4 1013.9 -29.7
2017-Dec-09 23:50N 70°28' W 102°18'0 0.0 1013.7 -29.5
2017-Dec-09 23:40N 70°28' W 102°18'0 0.0 1013.7 -29.4
2017-Dec-09 23:30N 70°28' W 102°18'0 1.2 1013.6 -29.4
2017-Dec-09 23:20N 70°28' W 102°17'0 0.0 1013.6 -29.3
2017-Dec-09 23:00N 70°28' W 102°17'0 1.2 1013.6 -29.2
2017-Dec-09 22:50N 70°28' W 102°17'0 1.2 1013.9 -29.1
2017-Dec-09 22:40N 70°28' W 102°17'0 0.4 1013.7 -29.1
2017-Dec-09 22:10N 70°28' W 102°18'0 0.0 1013.7 -29.1
2017-Dec-09 22:00N 70°28' W 102°18'0 0.0 1013.7 -29.1
2017-Dec-09 21:50N 70°28' W 102°18'0 0.0 1013.9 -29.1
2017-Dec-09 21:40N 70°28' W 102°18'0 0.0 1013.7 -29.2
2017-Dec-09 21:20N 70°28' W 102°18'0 1.2 1013.9 -29.4
2017-Dec-09 21:10N 70°28' W 102°17'0 0.0 1014.0 -29.5
2017-Dec-09 20:30N 70°28' W 102°17'0 1.2 1014.0 -30.0
2017-Dec-09 20:20N 70°28' W 102°18'0 0.0 1014.0 -30.1
2017-Dec-09 20:10N 70°28' W 102°18'0 0.0 1014.0 -30.1
2017-Dec-09 20:00N 70°28' W 102°18'0 0.0 1014.0 -30.1
2017-Dec-09 19:40N 70°28' W 102°18'0 1.2 1013.9 -29.9
2017-Dec-09 19:30N 70°28' W 102°17'0 1.2 1013.9 -29.9
2017-Dec-09 19:20N 70°28' W 102°18'0 0.4 1013.7 -29.9
2017-Dec-09 18:50N 70°28' W 102°17'0 0.0 1013.7 -29.9
2017-Dec-09 18:40N 70°28' W 102°17'0 0.0 1013.6 -29.9
2017-Dec-09 18:30N 70°28' W 102°17'0 0.0 1013.5 -30.0
2017-Dec-09 18:20N 70°28' W 102°17'1 1.9 1013.5 -30.0
2017-Dec-09 18:00N 70°28' W 102°18'1 3.6 1013.3 -30.0
2017-Dec-09 17:50N 70°28' W 102°18'0 0.0 1013.3 -29.9
2017-Dec-09 17:10N 70°28' W 102°18'0 0.0 1013.3 -29.7
2017-Dec-09 17:00N 70°28' W 102°18'0 0.0 1013.2 -29.7
2017-Dec-09 16:50N 70°28' W 102°18'0 0.0 1013.2 -29.6
2017-Dec-09 16:40N 70°28' W 102°18'0 0.0 1013.2 -29.6
2017-Dec-09 16:20N 70°28' W 102°18'0 0.0 1013.2 -29.4
2017-Dec-09 16:10N 70°28' W 102°18'0 0.0 1013.2 -29.3
2017-Dec-09 16:00N 70°28' W 102°18'0 0.0 1013.2 -29.3
2017-Dec-09 15:30N 70°28' W 102°18'0 1.2 1013.5 -29.1
2017-Dec-09 15:20N 70°28' W 102°17'0 1.2 1013.5 -29.0
2017-Dec-09 15:10N 70°28' W 102°18'0 0.0 1013.5 -28.9
2017-Dec-09 15:00N 70°28' W 102°18'0 0.0 1013.5 -28.8
2017-Dec-09 14:40N 70°28' W 102°18'0 0.0 1013.3 -28.7
2017-Dec-09 14:30N 70°28' W 102°18'0 0.0 1013.5 -28.6
2017-Dec-09 13:50N 70°28' W 102°18'0 0.0 1013.5 -28.3
2017-Dec-09 13:40N 70°28' W 102°18'0 0.0 1013.5 -28.2
2017-Dec-09 13:30N 70°28' W 102°18'0 0.0 1013.5 -28.1
2017-Dec-09 13:20N 70°28' W 102°18'0 0.0 1013.6 -27.9
2017-Dec-09 12:50N 70°28' W 102°18'0 0.0 1013.6 -27.2
2017-Dec-09 12:40N 70°28' W 102°18'0 0.8 1013.6 -27.1
2017-Dec-09 12:10N 70°28' W 102°19'1 3.6 1013.7 -26.8
2017-Dec-09 12:00N 70°28' W 102°17'0 0.0 1013.6 -26.6
2017-Dec-09 11:50N 70°28' W 102°17'0 0.0 1013.7 -26.3
2017-Dec-09 11:40N 70°28' W 102°17'0 0.0 1013.7 -26.2
2017-Dec-09 11:30N 70°28' W 102°17'0 0.0 1013.9 -25.9
2017-Dec-09 11:10N 70°28' W 102°17'0 0.0 1013.9 -25.6
2017-Dec-09 11:00N 70°28' W 102°17'0 0.4 1013.7 -25.4
2017-Dec-09 10:30N 70°28' W 102°18'0 0.0 1013.7 -25.4
2017-Dec-09 10:20N 70°28' W 102°18'0 0.0 1013.5 -25.5
2017-Dec-09 10:10N 70°28' W 102°18'0 0.0 1013.3 -25.9
2017-Dec-09 08:40N 70°28' W 102°18'0 0.0 1013.6 -25.8
2017-Dec-09 08:30N 70°28' W 102°18'1 0.5 1013.5 -25.9
2017-Dec-09 07:00N 70°29' W 102°19'1 5.1 1013.5 -25.3
2017-Dec-09 06:50N 70°28' W 102°17'0 0.0 1013.3 -25.2
2017-Dec-09 06:40N 70°28' W 102°17'0 0.0 1013.2 -25.2
2017-Dec-09 06:00N 70°28' W 102°17'0 1.2 1012.8 -25.1
2017-Dec-09 05:50N 70°28' W 102°18'0 0.0 1012.8
2017-Dec-09 05:20N 70°28' W 102°18'0 0.0 1012.9 -25.1
2017-Dec-09 05:10N 70°28' W 102°18'0 0.0 1012.8 -24.8
2017-Dec-09 05:00N 70°28' W 102°18'0 0.0 1012.9 -24.5
2017-Dec-09 04:40N 70°28' W 102°18'0 0.0 1012.6 -24.3
2017-Dec-09 04:30N 70°28' W 102°18'0 0.0 1012.6 -24.3
2017-Dec-09 04:10N 70°28' W 102°18'0 0.0 1012.8 -24.2
2017-Dec-09 03:40N 70°28' W 102°18'0 0.0 1012.5 -24.3
2017-Dec-09 03:30N 70°28' W 102°18'0 1.2 1012.6 -24.3
2017-Dec-09 03:20N 70°28' W 102°17'0 0.0 1012.6 -24.3
2017-Dec-09 03:10N 70°28' W 102°17'0 1.2 1012.6 -24.3
2017-Dec-09 03:00N 70°28' W 102°18'0 1.2 1012.6 -24.4
2017-Dec-09 02:50N 70°28' W 102°19'0 0.0 1012.6 -24.5
2017-Dec-09 02:40N 70°28' W 102°19'0 0.0 1012.6 -24.5
2017-Dec-09 02:30N 70°28' W 102°19'0 0.0 1012.8 -24.5
2017-Dec-09 02:00N 70°28' W 102°19'0 1.2 1012.6 -24.3
2017-Dec-09 01:50N 70°28' W 102°18'0 0.0 1012.6
2017-Dec-09 01:40N 70°28' W 102°18'0 0.6 1012.9 -24.1
2017-Dec-09 01:20N 70°28' W 102°17'0 1.2 1012.6 -23.9
2017-Dec-09 01:10N 70°28' W 102°18'0 0.0 1012.6 -23.7
2017-Dec-09 01:00N 70°28' W 102°18'0 0.0 1012.8 -23.4
2017-Dec-09 00:50N 70°28' W 102°18'1 2.8 1012.9 -23.2
2017-Dec-09 00:20N 70°28' W 102°22'1 4.2 1012.9 -22.4
2017-Dec-09 00:00N 70°28' W 102°18'0 0.0 1013.2 -22.2
2017-Dec-08 23:50N 70°28' W 102°18'0 0.0 1013.1 -22.2
2017-Dec-08 23:40N 70°28' W 102°18'0 0.0 1013.1 -22.3
2017-Dec-08 23:30N 70°28' W 102°18'0 0.0 1013.1 -22.4
2017-Dec-08 23:20N 70°28' W 102°18'0 0.0 1013.1 -22.5
2017-Dec-08 23:10N 70°28' W 102°18'0 0.0 1012.9 -22.6
2017-Dec-08 22:40N 70°28' W 102°18'0 0.0 1012.9 -22.8
2017-Dec-08 22:30N 70°28' W 102°18'0 1.2 1012.9
2017-Dec-08 22:20N 70°28' W 102°17'0 1.2 1012.8 -22.9
2017-Dec-08 22:10N 70°28' W 102°18'0 0.0 1012.9 -23.0
2017-Dec-08 22:00N 70°28' W 102°18'0 0.0 1012.8 -22.9
2017-Dec-08 21:50N 70°28' W 102°18'0 0.0 1012.6 -22.7
2017-Dec-08 21:40N 70°28' W 102°18'0 0.0 1012.6 -22.6
2017-Dec-08 21:30N 70°28' W 102°18'0 0.0 1012.6 -22.6
2017-Dec-08 21:00N 70°28' W 102°18'0 0.0 1012.4 -22.3
2017-Dec-08 20:50N 70°28' W 102°18'0 0.0 1012.5 -22.3
2017-Dec-08 20:40N 70°28' W 102°18'0 0.0 1012.5 -22.1
2017-Dec-08 20:30N 70°28' W 102°18'0 0.0 1012.4 -21.8
2017-Dec-08 20:20N 70°28' W 102°18'0 0.0 1012.1 -21.6
2017-Dec-08 20:10N 70°28' W 102°18'1 3.8 1012.2 -21.5
2017-Dec-08 20:00N 70°28' W 102°17'1 3.8 1012.2 -21.4
2017-Dec-08 19:50N 70°28' W 102°18'0 0.0 1012.1 -21.4
2017-Dec-08 19:00N 70°28' W 102°18'0 0.0 1012.5 -21.4
2017-Dec-08 18:50N 70°28' W 102°18'0 0.0 1012.4 -21.4
2017-Dec-08 18:40N 70°28' W 102°18'0 1.2 1012.4 -21.4
2017-Dec-08 18:30N 70°28' W 102°17'0 1.2 1012.4 -21.5
2017-Dec-08 18:20N 70°28' W 102°18'0 0.0 1012.5 -21.7
2017-Dec-08 18:10N 70°28' W 102°18'0 0.0 1012.5 -21.9
2017-Dec-08 17:20N 70°28' W 102°18'0 0.0 1013.1 -22.7
2017-Dec-08 17:10N 70°28' W 102°18'0 1.2 1013.1 -22.8
2017-Dec-08 17:00N 70°28' W 102°17'0 1.2 1012.9 -23.0
2017-Dec-08 16:50N 70°28' W 102°18'0 0.0 1013.1 -22.9
2017-Dec-08 16:40N 70°28' W 102°18'0 1.2 1012.9 -22.9
2017-Dec-08 16:30N 70°28' W 102°19'0 0.0 1013.1 -22.9
2017-Dec-08 15:50N 70°28' W 102°19'0 1.2 1013.1 -22.8
2017-Dec-08 15:40N 70°28' W 102°18'0 0.0 1013.2 -22.8
2017-Dec-08 15:30N 70°28' W 102°18'0 0.0 1013.2 -22.7
2017-Dec-08 15:20N 70°28' W 102°18'0 1.2 1013.5 -22.5
2017-Dec-08 15:10N 70°28' W 102°17'0 0.0 1013.5 -22.4
2017-Dec-08 15:00N 70°28' W 102°17'0 1.2 1013.5 -22.3
2017-Dec-08 14:50N 70°28' W 102°18'0 0.0 1013.6 -22.2
2017-Dec-08 14:10N 70°28' W 102°18'0 0.0 1014.0 -22.0
2017-Dec-08 14:00N 70°28' W 102°18'0 0.0 1014.2
2017-Dec-08 13:50N 70°28' W 102°18'0 0.0 1014.2 -22.2
2017-Dec-08 13:30N 70°28' W 102°18'0 0.0 1014.4 -22.2
2017-Dec-08 13:20N 70°28' W 102°18'0 0.0 1014.4 -22.2
2017-Dec-08 13:10N 70°28' W 102°18'0 0.0 1014.6 -22.2
2017-Dec-08 12:30N 70°28' W 102°18'0 1.2 1014.7 -21.7
2017-Dec-08 12:20N 70°28' W 102°17'0 0.0 1014.8 -21.5
2017-Dec-08 12:10N 70°28' W 102°17'0 0.0 1014.8 -21.2
2017-Dec-08 11:50N 70°28' W 102°17'0 0.0 1014.8 -20.7
2017-Dec-08 11:40N 70°28' W 102°17'0 1.2 1015.0 -20.4
2017-Dec-08 11:30N 70°28' W 102°18'0 0.0 1014.8 -20.3
2017-Dec-08 10:50N 70°28' W 102°18'0 0.0 1014.8 -19.2
2017-Dec-08 10:40N 70°28' W 102°18'0 0.0 1014.8 -19.1
2017-Dec-08 10:30N 70°28' W 102°18'0 0.0 1014.8 -18.9
2017-Dec-08 09:50N 70°28' W 102°18'0 0.0 1015.0 -18.4
2017-Dec-08 09:10N 70°28' W 102°18'0 0.0 1015.1 -18.5
2017-Dec-08 09:00N 70°28' W 102°18'0 0.0 1015.1 -18.5
2017-Dec-08 08:50N 70°28' W 102°18'0 0.0 1015.0 -18.5
2017-Dec-08 07:30N 70°28' W 102°18'0 0.0 1015.0 -18.7
2017-Dec-08 07:20N 70°28' W 102°18'0 1.2 1015.0 -18.8
2017-Dec-08 07:10N 70°28' W 102°17'0 1.2 1014.8 -18.9
2017-Dec-08 07:00N 70°28' W 102°18'0 0.0 1014.8 -18.9
2017-Dec-08 06:20N 70°28' W 102°18'0 0.0 -19.1
2017-Dec-08 05:50N 70°28' W 102°18'0 0.0 1014.6 -19.2
2017-Dec-08 05:40N 70°28' W 102°18'0 0.0 1014.4 -19.2
2017-Dec-08 05:30N 70°28' W 102°18'0 0.0 1014.6 -19.2
2017-Dec-08 05:20N 70°28' W 102°18'0 0.4 1014.6 -19.3
2017-Dec-08 04:50N 70°28' W 102°19'0 1.2 1014.6 -19.4
2017-Dec-08 04:40N 70°28' W 102°18'0 0.0 1014.6 -19.4
2017-Dec-08 04:30N 70°28' W 102°18'0 0.0 1014.4 -19.4
2017-Dec-08 04:10N 70°28' W 102°18'0 0.0 1014.4 -19.5
2017-Dec-08 04:00N 70°28' W 102°18'0 0.0 -19.5
2017-Dec-08 03:40N 70°28' W 102°18'0 0.0 1014.3 -19.6
2017-Dec-08 03:30N 70°28' W 102°18'0 0.0 1014.3
2017-Dec-08 03:10N 70°28' W 102°18'0 0.0 1014.3 -20.0
2017-Dec-08 03:00N 70°28' W 102°18'0 0.0 1014.4 -20.2
2017-Dec-08 02:50N 70°28' W 102°18'0 0.0 1014.4 -20.2
2017-Dec-08 02:30N 70°28' W 102°18'0 0.0 1014.3 -20.2
2017-Dec-08 02:00N 70°28' W 102°18'1 3.8 1014.4 -20.3
2017-Dec-08 01:50N 70°28' W 102°19'1 1.9 1014.6 -20.2
2017-Dec-08 01:30N 70°28' W 102°18'0 0.0 1014.6 -20.0
2017-Dec-08 01:20N 70°28' W 102°18'0 0.0 1014.6 -19.9
2017-Dec-08 01:10N 70°28' W 102°18'0 0.0 1014.7 -19.8
2017-Dec-08 01:00N 70°28' W 102°18'0 0.0 1014.8 -19.7
2017-Dec-08 00:50N 70°28' W 102°18'0 0.0 1014.7 -19.6
2017-Dec-08 00:20N 70°28' W 102°18'0 0.0 1014.8 -19.7
2017-Dec-08 00:10N 70°28' W 102°18'0 0.0 1014.8 -19.7
2017-Dec-07 23:50N 70°28' W 102°18'0 0.0 1015.1 -19.7
2017-Dec-07 23:40N 70°28' W 102°18'0 0.0 1015.1 -19.7
2017-Dec-07 23:30N 70°28' W 102°18'0 0.0 1015.1 -19.7
2017-Dec-07 23:10N 70°28' W 102°18'0 0.0 1015.1 -19.6
2017-Dec-07 22:40N 70°28' W 102°18'0 1.2 1015.2 -19.7
2017-Dec-07 22:30N 70°28' W 102°17'0 1.2 1015.4 -19.7
2017-Dec-07 22:20N 70°28' W 102°18'0 0.0 1015.4 -19.7
2017-Dec-07 22:10N 70°28' W 102°18'0 0.0 1015.4 -19.7
2017-Dec-07 22:00N 70°28' W 102°18'0 1.2 1015.5 -19.8
2017-Dec-07 21:50N 70°28' W 102°17'0 0.6 1015.7 -19.8
2017-Dec-07 21:30N 70°28' W 102°18'0 0.4 1015.8 -19.8
2017-Dec-07 21:00N 70°28' W 102°17'0 0.0 1016.2 -19.9
2017-Dec-07 20:50N 70°28' W 102°17'0 1.2 1016.2 -20.0
2017-Dec-07 20:40N 70°28' W 102°18'0 0.0 1016.2 -20.0
2017-Dec-07 20:30N 70°28' W 102°18'1 3.8 1016.3 -20.0
2017-Dec-07 20:20N 70°28' W 102°17'1 3.8 1016.3 -20.0
2017-Dec-07 20:10N 70°28' W 102°18'0 0.0 1016.5 -20.1
2017-Dec-07 19:10N 70°28' W 102°18'0 0.0 1017.0 -20.4
2017-Dec-07 19:00N 70°28' W 102°18'0 0.0 1017.2 -20.4
2017-Dec-07 18:50N 70°28' W 102°18'0 0.0 1017.2 -20.5
2017-Dec-07 18:40N 70°28' W 102°18'0 0.0 1017.4 -20.5
2017-Dec-07 18:30N 70°28' W 102°18'0 0.0 1017.4 -20.6
2017-Dec-07 17:50N 70°28' W 102°18'0 0.0 1017.8 -20.5
2017-Dec-07 17:30N 70°28' W 102°18'0 0.0 1018.0 -20.4
2017-Dec-07 17:20N 70°28' W 102°18'0 1.2 1018.0 -20.3
2017-Dec-07 17:10N 70°28' W 102°17'0 1.2 1018.1 -20.2
2017-Dec-07 17:00N 70°28' W 102°18'1 4.3 1018.3 -20.1
2017-Dec-07 16:50N 70°28' W 102°19'0 0.0 1018.1 -19.9
2017-Dec-07 16:20N 70°28' W 102°19'0 0.0 1018.5 -19.6
2017-Dec-07 16:10N 70°28' W 102°19'1 3.6 1018.7 -19.6
2017-Dec-07 16:00N 70°28' W 102°19'0 2.4 1018.9 -19.6
2017-Dec-07 15:50N 70°28' W 102°18'0 0.0 1018.9 -19.6
2017-Dec-07 15:40N 70°28' W 102°18'0 0.0 1019.1 -19.5
2017-Dec-07 15:30N 70°28' W 102°18'0 0.0 1019.2 -19.5
2017-Dec-07 15:20N 70°28' W 102°18'0 0.0 1019.4 -19.5
2017-Dec-07 15:10N 70°28' W 102°18'0 0.0 -19.5
2017-Dec-07 14:40N 70°28' W 102°18'0 0.4 1020.0 -19.5
2017-Dec-07 14:10N 70°28' W 102°17'0 0.0 1020.5 -19.6
2017-Dec-07 14:00N 70°28' W 102°17'0 0.6 1020.6 -19.6
2017-Dec-07 13:40N 70°28' W 102°18'0 0.0 1020.6 -19.6
2017-Dec-07 13:30N 70°28' W 102°18'0 0.0 1020.6 -19.7
2017-Dec-07 13:00N 70°28' W 102°18'0 1.2 1020.7 -19.7
2017-Dec-07 12:50N 70°28' W 102°17'0 0.0 1020.7 -19.7
2017-Dec-07 12:30N 70°28' W 102°17'0 1.2 1020.9 -19.7
2017-Dec-07 12:20N 70°28' W 102°18'0 0.0 1021.0 -19.7
2017-Dec-07 12:00N 70°28' W 102°18'0 0.0 1021.0 -19.7
2017-Dec-07 11:50N 70°28' W 102°18'0 0.0 1021.0 -19.7
2017-Dec-07 11:20N 70°28' W 102°18'0 0.0 1021.1 -19.6
2017-Dec-07 11:10N 70°28' W 102°18'0 0.0 1021.1 -19.6
2017-Dec-07 10:50N 70°28' W 102°18'0 0.0 1021.3 -19.4
2017-Dec-07 10:40N 70°28' W 102°18'0 0.6 1021.4 -19.4
2017-Dec-07 10:20N 70°28' W 102°17'0 0.0 1021.7 -19.3
2017-Dec-07 10:10N 70°28' W 102°17'0 0.4 1021.8 -19.3
2017-Dec-07 09:40N 70°28' W 102°18'0 0.0 1021.8 -19.2
2017-Dec-07 09:30N 70°28' W 102°18'0 0.0 1021.8 -19.2
2017-Dec-07 09:10N 70°28' W 102°18'0 0.0 1021.8 -19.2
2017-Dec-07 09:00N 70°28' W 102°18'0 0.0 1022.0 -19.2
2017-Dec-07 08:00N 70°28' W 102°18'0 0.0 1022.0 -19.3
2017-Dec-07 07:50N 70°28' W 102°18'0 0.6 1021.8 -19.3
2017-Dec-07 07:30N 70°28' W 102°17'0 1.2 1021.7 -19.3
2017-Dec-07 07:20N 70°28' W 102°18'0 0.0 1021.7 -19.3
2017-Dec-07 06:20N 70°28' W 102°18'0 0.0 1022.0 -19.2
2017-Dec-07 06:10N 70°28' W 102°18'0 0.0 1022.0 -19.2
2017-Dec-07 05:40N 70°28' W 102°18'0 0.0 1021.8 -19.2
2017-Dec-07 05:00N 70°28' W 102°18'0 0.0 1022.0 -19.3
2017-Dec-07 04:50N 70°28' W 102°18'0 0.0 1022.0 -19.3
2017-Dec-07 04:40N 70°28' W 102°18'0 0.0 1022.1 -19.3
2017-Dec-07 04:10N 70°28' W 102°18'0 0.0 1022.0 -19.4
2017-Dec-07 04:00N 70°28' W 102°18'0 0.0 1022.0 -19.4
2017-Dec-07 03:20N 70°28' W 102°18'0 0.0 1021.8 -19.6
2017-Dec-07 03:10N 70°28' W 102°18'0 0.0 1021.8 -19.6
2017-Dec-07 03:00N 70°28' W 102°18'0 0.0 1022.0 -19.7
2017-Dec-07 02:20N 70°28' W 102°18'0 0.0 1022.1 -19.9
2017-Dec-07 02:10N 70°28' W 102°18'0 0.0 1022.1 -19.9
2017-Dec-07 01:40N 70°28' W 102°18'0 0.0 1022.2 -20.0
2017-Dec-07 01:30N 70°28' W 102°18'0 0.0 1022.2 -20.0
2017-Dec-07 01:20N 70°28' W 102°18'0 0.0 1022.4 -20.1
2017-Dec-07 00:40N 70°28' W 102°18'0 0.0 1022.2 -20.1
2017-Dec-07 00:30N 70°28' W 102°18'0 0.0 1022.2 -20.1
2017-Dec-07 00:20N 70°28' W 102°18'0 0.6 1022.2 -20.0
2017-Dec-07 00:00N 70°28' W 102°19'1 3.8 1022.5 -19.9
2017-Dec-06 23:50N 70°28' W 102°18'1 3.6 1022.5 -19.9
2017-Dec-06 23:40N 70°28' W 102°18'1 0.9 1022.4 -19.9
2017-Dec-06 23:00N 70°28' W 102°18'1 1.8 1022.1 -19.9
2017-Dec-06 22:40N 70°28' W 102°18'1 1.9 1022.4 -19.8
2017-Dec-06 22:20N 70°28' W 102°17'1 1.9 1022.2 -19.6
2017-Dec-06 22:00N 70°28' W 102°18'0 0.0 1022.0 -19.5
2017-Dec-06 21:20N 70°28' W 102°18'0 0.0 1022.1 -19.4
2017-Dec-06 21:00N 70°28' W 102°18'0 0.0 1022.0 -19.4
2017-Dec-06 20:50N 70°28' W 102°18'0 0.0 1022.0 -19.4
2017-Dec-06 20:40N 70°28' W 102°18'0 0.0 1022.0 -19.4
2017-Dec-06 20:30N 70°28' W 102°18'0 0.0 1022.0 -19.4
2017-Dec-06 19:50N 70°28' W 102°18'0 0.0 1021.8 -19.6
2017-Dec-06 19:20N 70°28' W 102°18'0 0.0 1021.7 -19.8
2017-Dec-06 19:10N 70°28' W 102°18'1 4.3 1021.7 -19.8
2017-Dec-06 19:00N 70°28' W 102°17'1 4.3 1021.5 -19.8
2017-Dec-06 18:50N 70°28' W 102°18'0 0.0 1021.5 -19.8
2017-Dec-06 18:00N 70°28' W 102°18'0 0.0 1021.7 -19.7
2017-Dec-06 17:40N 70°28' W 102°18'0 0.0 1021.5 -19.7
2017-Dec-06 17:30N 70°28' W 102°18'0 0.0 1021.5 -19.7
2017-Dec-06 17:20N 70°28' W 102°18'0 0.0 1021.4 -19.6
2017-Dec-06 17:10N 70°28' W 102°18'0 0.0 1021.3 -19.6
2017-Dec-06 16:00N 70°28' W 102°18'0 1.2 1021.1 -19.4
2017-Dec-06 15:50N 70°28' W 102°17'0 1.2 1021.1 -19.3
2017-Dec-06 15:40N 70°28' W 102°18'0 0.0 1020.9 -19.3
2017-Dec-06 15:30N 70°28' W 102°18'0 0.0 1020.9 -19.2
2017-Dec-06 15:10N 70°28' W 102°18'0 0.0 1020.7 -19.5
2017-Dec-06 14:30N 70°28' W 102°18'0 0.0 -19.1
2017-Dec-06 14:20N 70°28' W 102°18'0 0.0 1020.3 -19.0
2017-Dec-06 14:10N 70°28' W 102°18'0 1.2 1020.3 -19.0
2017-Dec-06 14:00N 70°28' W 102°17'0 1.2 1020.3 -19.0
2017-Dec-06 13:50N 70°28' W 102°18'0 0.0 1020.3 -18.9
2017-Dec-06 13:30N 70°28' W 102°18'0 1.2 1020.2 -18.9
2017-Dec-06 13:20N 70°28' W 102°17'0 0.6 1020.2 -18.9
2017-Dec-06 13:00N 70°28' W 102°18'0 0.6 1020.2 -18.9
2017-Dec-06 12:40N 70°28' W 102°17'0 1.2 1019.9 -18.9
2017-Dec-06 12:30N 70°28' W 102°18'0 1.2 1019.9 -18.9
2017-Dec-06 12:20N 70°28' W 102°17'0 1.2 1019.9 -18.9
2017-Dec-06 12:10N 70°28' W 102°18'0 0.0 1019.8 -18.9
2017-Dec-06 11:50N 70°28' W 102°18'0 0.0 1020.0 -19.0
2017-Dec-06 11:40N 70°28' W 102°18'0 0.0 1020.0 -19.0
2017-Dec-06 11:00N 70°28' W 102°18'0 0.0 1020.2 -19.0
2017-Dec-06 10:50N 70°28' W 102°18'0 0.0 1020.2 -18.9
2017-Dec-06 10:40N 70°28' W 102°18'0 0.0 1020.0 -18.9
2017-Dec-06 10:30N 70°28' W 102°18'0 0.0 1019.9 -18.8
2017-Dec-06 10:10N 70°28' W 102°18'0 0.0 1019.9 -18.8
2017-Dec-06 10:00N 70°28' W 102°18'0 0.0 1020.0 -18.8
2017-Dec-06 09:20N 70°28' W 102°18'0 0.0 1019.8 -18.7
2017-Dec-06 09:10N 70°28' W 102°18'0 0.0 1019.8 -18.6
2017-Dec-06 08:30N 70°28' W 102°18'0 0.0 1019.6 -18.5
2017-Dec-06 08:20N 70°28' W 102°18'0 0.0 1019.6 -18.5
2017-Dec-06 07:50N 70°28' W 102°18'0 0.0 1019.8 -18.4
2017-Dec-06 07:40N 70°28' W 102°18'0 1.2 1019.8 -18.4
2017-Dec-06 07:30N 70°28' W 102°17'0 0.0 1019.8 -18.5
2017-Dec-06 06:50N 70°28' W 102°17'0 0.0 1019.9 -18.5
2017-Dec-06 06:40N 70°28' W 102°17'0 0.8 -18.5
2017-Dec-06 06:10N 70°28' W 102°19'0 1.2 1020.2 -18.4
2017-Dec-06 06:00N 70°28' W 102°18'0 0.0 1020.3 -18.4
2017-Dec-06 05:20N 70°28' W 102°18'0 0.0 1020.7 -18.5
2017-Dec-06 05:10N 70°28' W 102°18'0 0.3 1020.9 -18.6
2017-Dec-06 04:30N 70°28' W 102°19'0 0.0 1021.0 -18.7
2017-Dec-06 04:20N 70°28' W 102°19'0 0.0 1021.1 -18.8
2017-Dec-06 03:50N 70°28' W 102°19'0 0.0 1021.5 -19.1
2017-Dec-06 03:40N 70°28' W 102°19'1 5.1 1021.5 -19.2
2017-Dec-06 03:30N 70°28' W 102°17'0 0.0 1021.7 -19.3
2017-Dec-06 02:40N 70°28' W 102°17'0 0.0 1022.1 -20.0
2017-Dec-06 02:20N 70°28' W 102°17'1 1.8 1022.2 -20.3
2017-Dec-06 02:00N 70°28' W 102°17'0 2.4 1022.5 -20.6
2017-Dec-06 01:50N 70°28' W 102°18'0 0.0 1022.6 -20.7
2017-Dec-06 01:40N 70°28' W 102°18'0 0.0 1022.6 -20.9
2017-Dec-06 01:00N 70°28' W 102°18'0 0.0 1022.9 -21.4
2017-Dec-06 00:40N 70°28' W 102°18'0 0.0 1022.8 -21.8
2017-Dec-06 00:30N 70°28' W 102°18'0 0.0 1023.2 -22.0
2017-Dec-06 00:20N 70°28' W 102°18'0 0.0 1023.3 -22.3
2017-Dec-06 00:10N 70°28' W 102°18'0 0.0 1023.5 -22.6
2017-Dec-06 00:00N 70°28' W 102°18'0 0.0 1023.6 -22.7
2017-Dec-05 23:20N 70°28' W 102°18'0 0.0 1024.1 -23.8
2017-Dec-05 22:50N 70°28' W 102°18'0 1.2 1024.4 -24.8
2017-Dec-05 22:40N 70°28' W 102°19'0 1.2 1024.4 -25.1
2017-Dec-05 22:30N 70°28' W 102°18'1 0.9 1024.6 -25.4
2017-Dec-05 21:50N 70°28' W 102°18'1 4.3 1024.7 -27.1
2017-Dec-05 21:40N 70°28' W 102°17'0 0.0 1024.8 -27.6
2017-Dec-05 21:20N 70°28' W 102°17'1 3.6 1025.0 -28.2
2017-Dec-05 21:10N 70°28' W 102°19'0 0.0 1025.0 -28.5
2017-Dec-05 21:00N 70°28' W 102°19'0 0.0 1025.1 -28.8
2017-Dec-05 20:50N 70°28' W 102°19'0 2.4 1025.1 -29.1
2017-Dec-05 20:40N 70°28' W 102°17'0 0.0 1025.1 -29.5
2017-Dec-05 20:00N 70°28' W 102°17'0 0.0 1025.2 -31.1
2017-Dec-05 19:30N 70°28' W 102°17'1 3.8 1025.5 -32.1
2017-Dec-05 19:20N 70°28' W 102°17'1 3.8 1025.5 -32.5
2017-Dec-05 19:10N 70°28' W 102°17'0 0.0 1025.4 -32.7
2017-Dec-05 19:00N 70°28' W 102°17'0 0.2 1025.5 -32.7
2017-Dec-05 17:50N 70°28' W 102°17'1 4.8 1025.8 -31.4
2017-Dec-05 17:40N 70°28' W 102°19'0 2.4 1025.7 -31.4
2017-Dec-05 17:30N 70°28' W 102°18'0 0.0 1025.7 -31.2
2017-Dec-05 16:50N 70°28' W 102°18'0 0.0 1025.4 -30.5
2017-Dec-05 16:10N 70°28' W 102°18'0 1.2 1025.2 -29.4
2017-Dec-05 16:00N 70°28' W 102°17'0 1.2 1025.2 -29.1
2017-Dec-05 15:50N 70°28' W 102°18'0 1.2 1025.2 -28.9
2017-Dec-05 15:40N 70°28' W 102°17'0 0.3 1025.4 -28.6
2017-Dec-05 15:00N 70°28' W 102°18'0 0.4 1025.2 -28.0
2017-Dec-05 14:30N 70°28' W 102°17'0 0.0 1025.1 -28.0
2017-Dec-05 14:20N 70°28' W 102°17'0 0.0 1025.1 -28.0
2017-Dec-05 14:10N 70°28' W 102°17'0 1.2 1025.2 -28.0
2017-Dec-05 14:00N 70°28' W 102°18'0 1.2 1025.1 -28.0
2017-Dec-05 13:50N 70°28' W 102°17'0 0.0 -28.0
2017-Dec-05 13:00N 70°28' W 102°17'0 1.2 1024.8 -28.1
2017-Dec-05 12:50N 70°28' W 102°18'0 1.2 1024.8 -28.2
2017-Dec-05 12:40N 70°28' W 102°17'0 0.0 1024.8 -28.2
2017-Dec-05 12:30N 70°28' W 102°17'0 0.0 1025.0 -28.3
2017-Dec-05 12:20N 70°28' W 102°17'0 1.2 1024.8 -28.3
2017-Dec-05 12:10N 70°28' W 102°18'0 0.0 1024.8 -28.3
2017-Dec-05 11:10N 70°28' W 102°18'0 0.0 1024.7 -28.6
2017-Dec-05 11:00N 70°28' W 102°18'0 0.0 -28.6
2017-Dec-05 10:40N 70°28' W 102°18'0 0.0 1024.7 -28.7
2017-Dec-05 10:30N 70°28' W 102°18'0 0.0 1024.7 -28.7
2017-Dec-05 09:30N 70°28' W 102°18'0 0.0 1024.3 -28.6
2017-Dec-05 09:20N 70°28' W 102°18'0 0.0 1024.1 -28.5
2017-Dec-05 09:00N 70°28' W 102°18'0 0.0 1024.0 -28.5
2017-Dec-05 08:50N 70°28' W 102°18'0 0.3 1024.0
2017-Dec-05 08:10N 70°28' W 102°17'0 0.0 1023.7 -28.4
2017-Dec-05 07:50N 70°28' W 102°17'0 0.0 1023.7 -28.4
2017-Dec-05 07:40N 70°28' W 102°17'0 0.0 1023.7 -28.4
2017-Dec-05 07:20N 70°28' W 102°17'0 0.2 1023.6 -28.2
2017-Dec-05 06:30N 70°28' W 102°18'0 0.0 1023.3 -27.8
2017-Dec-05 06:20N 70°28' W 102°18'0 0.0 1023.2 -27.8
2017-Dec-05 05:50N 70°28' W 102°18'0 0.0 1023.2 -27.7
2017-Dec-05 05:40N 70°28' W 102°18'0 0.0 1023.3 -27.7
2017-Dec-05 05:30N 70°28' W 102°18'0 0.0 1023.2 -27.7
2017-Dec-05 05:20N 70°28' W 102°18'0 0.0 1023.1 -27.7
2017-Dec-05 04:40N 70°28' W 102°18'0 0.4 1022.9 -27.6
2017-Dec-05 04:10N 70°28' W 102°19'0 1.2 1022.6 -27.4
2017-Dec-05 04:00N 70°28' W 102°18'0 0.0 1022.6 -27.4
2017-Dec-05 03:50N 70°28' W 102°18'0 1.2 1022.6 -27.4
2017-Dec-05 03:40N 70°28' W 102°17'0 0.0 1022.4 -27.4
2017-Dec-05 03:00N 70°28' W 102°17'0 0.4 1022.1 -27.5
2017-Dec-05 02:30N 70°28' W 102°18'0 0.0 1022.0 -27.6
2017-Dec-05 02:20N 70°28' W 102°18'0 0.0 1022.0 -27.7
2017-Dec-05 02:10N 70°28' W 102°18'0 0.0 1022.0 -27.7
2017-Dec-05 02:00N 70°28' W 102°18'0 0.0 1022.2 -27.7
2017-Dec-05 01:20N 70°28' W 102°18'0 0.0 1022.4 -27.7
2017-Dec-05 00:50N 70°28' W 102°18'0 0.0 1022.4 -27.5
2017-Dec-05 00:40N 70°28' W 102°18'1 4.3 1022.2 -27.5
2017-Dec-05 00:30N 70°28' W 102°19'1 4.3 1022.2 -27.4
2017-Dec-05 00:20N 70°28' W 102°18'0 0.0 1022.4 -27.4
2017-Dec-04 23:50N 70°28' W 102°18'0 0.0 1022.6 -27.6
2017-Dec-04 23:40N 70°28' W 102°18'0 0.4 1022.5 -27.6
2017-Dec-04 23:10N 70°28' W 102°17'0 1.2 1022.5 -27.7
2017-Dec-04 23:00N 70°28' W 102°18'0 0.0 1022.6 -27.8
2017-Dec-04 22:50N 70°28' W 102°18'0 0.0 1022.6 -27.8
2017-Dec-04 22:40N 70°28' W 102°18'0 0.6 1022.6 -27.9
2017-Dec-04 22:00N 70°28' W 102°19'1 1.2 1022.8 -28.2
2017-Dec-04 21:30N 70°28' W 102°17'1 3.8 1022.6 -28.4
2017-Dec-04 21:20N 70°28' W 102°18'0 0.0 1022.8 -28.4
2017-Dec-04 21:00N 70°28' W 102°18'0 0.0 1022.6 -28.5
2017-Dec-04 20:50N 70°28' W 102°18'0 0.0 1022.6
2017-Dec-04 20:00N 70°28' W 102°18'0 1.2 1022.5 -29.0
2017-Dec-04 19:50N 70°28' W 102°19'0 1.2 1022.5 -29.1
2017-Dec-04 19:40N 70°28' W 102°18'0 0.0 1022.6 -29.2
2017-Dec-04 19:30N 70°28' W 102°18'1 3.6 1022.5
2017-Dec-04 19:20N 70°28' W 102°18'0 0.0 1022.4 -29.5
2017-Dec-04 18:50N 70°28' W 102°18'0 0.0 1022.2 -29.9
2017-Dec-04 18:20N 70°28' W 102°18'1 3.6 1022.4 -30.3
2017-Dec-04 18:10N 70°28' W 102°18'1 3.8 1022.4 -30.4
2017-Dec-04 18:00N 70°28' W 102°17'0 0.0 1022.2 -30.6
2017-Dec-04 17:50N 70°28' W 102°17'0 0.0 1022.2
2017-Dec-04 17:40N 70°28' W 102°17'0 0.0 1022.4 -30.8
2017-Dec-04 17:30N 70°28' W 102°17'0 1.2 1022.4
2017-Dec-04 17:10N 70°28' W 102°19'1 5.1 1022.2 -31.4
2017-Dec-04 17:00N 70°28' W 102°17'0 1.2 1022.4 -31.4
2017-Dec-04 16:40N 70°28' W 102°18'0 0.0 1022.4 -31.8
2017-Dec-04 16:30N 70°28' W 102°18'1 3.6 1022.4
2017-Dec-04 16:20N 70°28' W 102°18'1 7.0 1022.2 -32.1
2017-Dec-04 16:10N 70°29' W 102°21'1 8.1 1022.2
2017-Dec-04 16:00N 70°28' W 102°17'0 0.0 1022.2 -32.3
2017-Dec-04 15:50N 70°28' W 102°17'0 0.0 1022.2 -32.4
2017-Dec-04 15:00N 70°28' W 102°17'0 0.0 1022.0 -32.9
2017-Dec-04 14:50N 70°28' W 102°17'0 2.4 1022.0 -32.9
2017-Dec-04 14:40N 70°28' W 102°19'0 2.4 -32.9
2017-Dec-04 14:30N 70°28' W 102°17'0 0.0 1022.0
2017-Dec-04 14:20N 70°28' W 102°17'0 0.0 1022.0 -33.1
2017-Dec-04 14:10N 70°28' W 102°17'0 0.0 1022.0 -33.1
2017-Dec-04 13:10N 70°28' W 102°17'1 4.3 1021.8 -33.1
2017-Dec-04 13:00N 70°28' W 102°16'1 3.6 1021.7 -33.0
2017-Dec-04 12:50N 70°28' W 102°16'0 1.2 1021.5 -33.0
2017-Dec-04 12:40N 70°28' W 102°17'0 2.4 1021.4 -32.9
2017-Dec-04 12:30N 70°28' W 102°18'0 0.0 1021.4 -32.9
2017-Dec-04 11:40N 70°28' W 102°18'0 0.0 1021.3 -32.1
2017-Dec-04 11:30N 70°28' W 102°18'0 1.2 1021.3 -32.0
2017-Dec-04 11:20N 70°28' W 102°19'0 0.0 1021.1 -31.8
2017-Dec-04 11:10N 70°28' W 102°19'0 1.2 1021.1
2017-Dec-04 11:00N 70°28' W 102°18'0 0.0 1021.3 -31.4
2017-Dec-04 10:50N 70°28' W 102°18'0 0.0 1021.1 -31.3
2017-Dec-04 09:50N 70°28' W 102°18'0 0.0 1021.0 -31.5
2017-Dec-04 09:40N 70°28' W 102°18'0 0.0 1020.7 -31.5
2017-Dec-04 09:30N 70°28' W 102°18'0 0.0 1020.9 -31.6
2017-Dec-04 09:20N 70°28' W 102°18'0 0.0
2017-Dec-04 08:00N 70°28' W 102°18'0 0.0 1020.7 -32.0
2017-Dec-04 07:50N 70°28' W 102°18'0 0.2 -32.0
2017-Dec-04 06:50N 70°28' W 102°19'0 0.0 1020.0 -31.8
2017-Dec-04 06:40N 70°28' W 102°19'0 1.2 1020.0 -31.8
2017-Dec-04 06:20N 70°28' W 102°17'0 0.0 1019.8 -31.8
2017-Dec-04 06:10N 70°28' W 102°17'0 1.2 1019.8 -31.9
2017-Dec-04 06:00N 70°28' W 102°18'0 0.0 1019.6 -31.9
2017-Dec-04 05:40N 70°28' W 102°18'0 0.0 1019.4 -32.0
2017-Dec-04 05:10N 70°28' W 102°18'1 8.7 1019.2 -32.0
2017-Dec-04 05:00N 70°27' W 102°20'1 4.3 1019.1 -31.9
2017-Dec-04 04:40N 70°28' W 102°18'1 8.7 1018.8 -31.9
2017-Dec-04 04:30N 70°27' W 102°20'1 8.7 1018.8 -31.9
2017-Dec-04 04:20N 70°28' W 102°18'0 0.0 1018.8 -31.9
2017-Dec-04 04:10N 70°28' W 102°18'0 0.0 1018.8 -32.1
2017-Dec-04 04:00N 70°28' W 102°18'0 0.0 1018.7 -32.1
2017-Dec-04 03:50N 70°28' W 102°18'0 0.0 1018.5 -32.1
2017-Dec-04 03:30N 70°28' W 102°18'0 0.0 1018.3 -32.2
2017-Dec-04 03:20N 70°28' W 102°18'1 1.9 1018.3 -32.3
2017-Dec-04 03:00N 70°28' W 102°17'0 0.0 1018.3 -32.5
2017-Dec-04 02:50N 70°28' W 102°17'1 3.8 1018.0 -32.5
2017-Dec-04 02:40N 70°28' W 102°18'0 0.0 1018.1 -32.6
2017-Dec-04 02:30N 70°28' W 102°18'0 0.0 1018.1 -32.7
2017-Dec-04 02:20N 70°28' W 102°18'0 0.0 1017.8 -32.8
2017-Dec-04 02:10N 70°28' W 102°18'0 0.0 1018.0 -32.9
2017-Dec-04 01:50N 70°28' W 102°18'0 0.0 1017.8 -33.1
2017-Dec-04 01:40N 70°28' W 102°18'0 0.6 1017.7 -33.3
2017-Dec-04 01:20N 70°28' W 102°19'0 1.2 1017.4 -33.5
2017-Dec-04 01:10N 70°28' W 102°18'0 1.2 -33.5
2017-Dec-04 01:00N 70°28' W 102°19'0 1.2 1017.3 -33.5
2017-Dec-04 00:50N 70°28' W 102°18'0 0.0 1017.0 -33.5
2017-Dec-04 00:40N 70°28' W 102°18'0 0.0 1016.9 -33.5
2017-Dec-04 00:30N 70°28' W 102°18'0 0.0 1016.9 -33.5
2017-Dec-04 00:20N 70°28' W 102°18'0 0.0 1016.9
2017-Dec-04 00:00N 70°28' W 102°18'0 0.0 1017.0 -33.3
2017-Dec-03 23:40N 70°28' W 102°18'0 0.0 1016.8 -33.2
2017-Dec-03 23:30N 70°28' W 102°18'0 0.0 1016.6 -33.2
2017-Dec-03 23:20N 70°28' W 102°18'0 0.0 1016.5 -33.1
2017-Dec-03 23:10N 70°28' W 102°18'0 0.0 1016.5 -33.1
2017-Dec-03 23:00N 70°28' W 102°18'0 0.0 1016.3 -33.1
2017-Dec-03 22:50N 70°28' W 102°18'0 0.0 1016.2 -33.0
2017-Dec-03 22:20N 70°28' W 102°18'0 0.0 1015.9 -32.9
2017-Dec-03 22:00N 70°28' W 102°18'0 0.0 1015.8 -32.9
2017-Dec-03 21:50N 70°28' W 102°18'0 0.0 1015.8 -32.9
2017-Dec-03 21:40N 70°28' W 102°18'0 1.2 1015.7 -32.9
2017-Dec-03 21:30N 70°28' W 102°17'0 0.0 1015.5 -32.9
2017-Dec-03 21:10N 70°28' W 102°17'1 1.8 1015.2 -32.8
2017-Dec-03 20:50N 70°28' W 102°17'1 3.8 1015.2 -32.6
2017-Dec-03 20:40N 70°28' W 102°18'0 0.0 1015.1 -32.5
2017-Dec-03 20:20N 70°28' W 102°18'0 0.0 1015.0 -32.5
2017-Dec-03 20:10N 70°28' W 102°18'0 0.0 1015.0 -32.5
2017-Dec-03 20:00N 70°28' W 102°18'0 0.0 1014.7 -32.6
2017-Dec-03 19:50N 70°28' W 102°18'0 0.0 1014.7 -32.7
2017-Dec-03 19:40N 70°28' W 102°18'0 0.0 1014.7 -32.8
2017-Dec-03 19:30N 70°28' W 102°18'0 0.4 1014.6 -32.9
2017-Dec-03 19:00N 70°28' W 102°17'0 0.0 1014.3 -33.5
2017-Dec-03 18:40N 70°28' W 102°17'0 0.0 1014.2 -33.6
2017-Dec-03 18:30N 70°28' W 102°17'0 0.0 1014.2 -33.6
2017-Dec-03 18:20N 70°28' W 102°17'0 1.2 1014.0 -33.6
2017-Dec-03 18:10N 70°28' W 102°18'0 0.0 1013.9 -33.6
2017-Dec-03 18:00N 70°28' W 102°18'0 0.0 1013.7 -33.6
2017-Dec-03 17:50N 70°28' W 102°18'0 0.0 1013.7 -33.5
2017-Dec-03 17:00N 70°28' W 102°18'0 0.0 1013.2 -33.3
2017-Dec-03 16:40N 70°28' W 102°18'0 0.0 1012.9 -33.2
2017-Dec-03 16:30N 70°28' W 102°18'1 5.1 1012.9 -33.2
2017-Dec-03 16:20N 70°28' W 102°16'0 0.0 1012.9 -33.1
2017-Dec-03 16:10N 70°28' W 102°16'1 2.2 1012.9 -33.0
2017-Dec-03 15:50N 70°28' W 102°17'0 0.0 1012.6 -33.0
2017-Dec-03 15:20N 70°28' W 102°17'0 1.2 1012.5 -33.0
2017-Dec-03 15:10N 70°28' W 102°18'0 0.0 1012.4 -33.1
2017-Dec-03 15:00N 70°28' W 102°18'0 0.0 1012.2 -33.1
2017-Dec-03 14:50N 70°28' W 102°18'0 0.0 1012.2 -33.1
2017-Dec-03 14:30N 70°28' W 102°18'0 0.0 1012.1 -33.1
2017-Dec-03 13:40N 70°28' W 102°18'0 0.0 1011.6 -33.0
2017-Dec-03 13:20N 70°28' W 102°18'0 0.0 1011.3 -33.0
2017-Dec-03 13:10N 70°28' W 102°18'0 0.6 1011.3 -33.1
2017-Dec-03 12:50N 70°28' W 102°17'0 0.2 1011.3 -33.3
2017-Dec-03 12:00N 70°28' W 102°18'0 0.0 1011.0 -32.9
2017-Dec-03 11:40N 70°28' W 102°18'0 1.2 1010.9 -32.7
2017-Dec-03 11:30N 70°28' W 102°19'0 0.6 1010.9 -32.6
2017-Dec-03 11:10N 70°28' W 102°18'0 0.0 1010.6 -32.3
2017-Dec-03 11:00N 70°28' W 102°18'0 0.0 1010.6 -32.1
2017-Dec-03 10:10N 70°28' W 102°18'0 0.0 1010.2
2017-Dec-03 10:00N 70°28' W 102°18'0 0.0 1010.0 -31.5
2017-Dec-03 09:50N 70°28' W 102°18'0 0.0 1009.9 -31.4
2017-Dec-03 08:30N 70°28' W 102°18'0 0.0 1009.8 -30.1
2017-Dec-03 08:20N 70°28' W 102°18'0 0.0 1009.8 -30.0
2017-Dec-03 08:10N 70°28' W 102°18'0 0.0 1009.8 -29.9
2017-Dec-03 07:10N 70°28' W 102°18'0 0.0 1009.2 -29.1
2017-Dec-03 07:00N 70°28' W 102°18'0 0.0 1009.2
2017-Dec-03 06:50N 70°28' W 102°18'0 0.0 1009.1 -28.9
2017-Dec-03 06:40N 70°28' W 102°18'0 0.0 1009.0 -28.8
2017-Dec-03 06:20N 70°28' W 102°18'0 0.0 1009.0 -28.6
2017-Dec-03 05:50N 70°28' W 102°18'0 0.0 1008.7 -28.4
2017-Dec-03 05:30N 70°28' W 102°18'0 0.0 1008.5 -28.2
2017-Dec-03 05:20N 70°28' W 102°18'0 0.0 1008.5 -28.2
2017-Dec-03 05:10N 70°28' W 102°18'0 0.0 1008.4 -28.3
2017-Dec-03 05:00N 70°28' W 102°18'0 0.0 1008.4 -28.4
2017-Dec-03 04:40N 70°28' W 102°18'0 0.0 1008.1 -28.5
2017-Dec-03 04:30N 70°28' W 102°18'0 0.0 1008.1
2017-Dec-03 04:10N 70°28' W 102°18'0 0.0 1008.3 -28.5
2017-Dec-03 03:50N 70°28' W 102°18'0 0.0 1008.1 -28.4
2017-Dec-03 03:40N 70°28' W 102°18'0 0.0 1008.0 -28.4
2017-Dec-03 03:30N 70°28' W 102°18'0 0.0 1008.1 -28.4
2017-Dec-03 03:20N 70°28' W 102°18'0 0.6 1008.1 -28.3
2017-Dec-03 03:00N 70°28' W 102°17'0 0.0 1008.0 -28.2
2017-Dec-03 02:30N 70°28' W 102°17'0 2.4 1007.7 -27.9
2017-Dec-03 02:20N 70°28' W 102°19'0 0.0 1007.6 -27.7
2017-Dec-03 02:10N 70°28' W 102°19'0 0.0 1007.6 -27.5
2017-Dec-03 02:00N 70°28' W 102°19'0 1.2 1007.6 -27.3
2017-Dec-03 01:50N 70°28' W 102°18'0 0.0 1007.6 -27.2
2017-Dec-03 01:40N 70°28' W 102°18'0 0.0 1007.6 -27.0
2017-Dec-03 01:20N 70°28' W 102°18'0 1.2 1007.6 -26.8
2017-Dec-03 01:10N 70°28' W 102°17'0 0.0 1007.6 -26.6
2017-Dec-03 00:50N 70°28' W 102°17'0 1.2 1007.6 -26.4
2017-Dec-03 00:40N 70°28' W 102°18'0 0.0 1007.6 -26.4
2017-Dec-03 00:20N 70°28' W 102°18'0 0.0 1007.4 -26.6
2017-Dec-03 00:10N 70°28' W 102°18'0 0.0 1007.3 -26.8
2017-Dec-03 00:00N 70°28' W 102°18'0 0.0 1007.3 -26.9
2017-Dec-02 23:40N 70°28' W 102°18'0 0.0 1007.3 -27.4
2017-Dec-02 23:30N 70°28' W 102°18'0 0.0 1007.2 -27.6
2017-Dec-02 23:20N 70°28' W 102°18'0 0.0 1007.2
2017-Dec-02 23:10N 70°28' W 102°18'1 7.3 1007.2 -27.9
2017-Dec-02 23:00N 70°27' W 102°19'1 7.3 1007.2 -28.1
2017-Dec-02 22:50N 70°28' W 102°18'1 7.3 1007.2 -28.1
2017-Dec-02 22:40N 70°27' W 102°19'1 7.3 1007.0 -28.2
2017-Dec-02 22:30N 70°28' W 102°18'0 0.0 1007.0 -28.3
2017-Dec-02 22:20N 70°28' W 102°18'0 0.0 1006.9 -28.3
2017-Dec-02 22:10N 70°28' W 102°18'0 1.2
2017-Dec-02 22:00N 70°28' W 102°17'0 0.0 1006.8 -28.4
2017-Dec-02 21:50N 70°28' W 102°17'0 1.2 1006.8 -28.4
2017-Dec-02 21:40N 70°28' W 102°18'0 0.0 1006.8 -28.4
2017-Dec-02 21:30N 70°28' W 102°18'1 3.6 1006.8 -28.5
2017-Dec-02 21:20N 70°28' W 102°18'0 0.0 1006.8
2017-Dec-02 21:00N 70°28' W 102°18'0 0.0 1006.6 -28.4
2017-Dec-02 20:40N 70°28' W 102°18'1 3.6 1006.6 -28.4
2017-Dec-02 20:30N 70°28' W 102°18'0 1.2 1006.6 -28.4
2017-Dec-02 20:20N 70°28' W 102°19'0 0.0 1006.5 -28.4
2017-Dec-02 20:10N 70°28' W 102°19'1 3.8 1006.4 -28.3
2017-Dec-02 20:00N 70°28' W 102°18'0 0.0 1006.4 -28.1
2017-Dec-02 19:50N 70°28' W 102°18'1 3.6 1006.2 -28.0
2017-Dec-02 19:40N 70°28' W 102°18'0 0.0 1006.2 -27.8
2017-Dec-02 19:10N 70°28' W 102°18'0 0.0 1006.1 -27.4
2017-Dec-02 19:00N 70°28' W 102°18'0 0.0 1006.1 -27.2
2017-Dec-02 18:50N 70°28' W 102°18'0 0.0 1006.1 -27.0
2017-Dec-02 18:40N 70°28' W 102°18'0 0.0 1006.1 -26.8
2017-Dec-02 18:30N 70°28' W 102°18'0 1.2 1006.1 -26.6
2017-Dec-02 18:20N 70°28' W 102°17'0 0.0 1006.1 -26.4
2017-Dec-02 18:10N 70°28' W 102°17'0 0.0 1006.1 -26.2
2017-Dec-02 18:00N 70°28' W 102°17'1 3.6 1006.1 -26.0
2017-Dec-02 17:50N 70°28' W 102°19'0 1.2 1006.1 -25.7
2017-Dec-02 17:30N 70°28' W 102°18'0 0.0 1006.1 -25.2
2017-Dec-02 17:20N 70°28' W 102°18'0 0.0 1005.9 -24.9
2017-Dec-02 17:10N 70°28' W 102°18'0 1.2 1005.8 -24.6
2017-Dec-02 17:00N 70°28' W 102°19'0 1.2 1005.8 -24.3
2017-Dec-02 16:50N 70°28' W 102°18'0 0.0 1005.8 -24.0
2017-Dec-02 16:40N 70°28' W 102°18'0 1.2 1005.8 -23.6
2017-Dec-02 16:30N 70°28' W 102°17'0 0.0 1005.8 -23.2
2017-Dec-02 16:20N 70°28' W 102°17'0 0.0 1005.8 -22.9
2017-Dec-02 16:00N 70°28' W 102°17'0 0.0 1005.7 -22.2
2017-Dec-02 15:50N 70°28' W 102°17'0 0.0 1005.5 -21.9
2017-Dec-02 15:40N 70°28' W 102°17'0 0.0 1005.4 -21.6
2017-Dec-02 15:30N 70°28' W 102°17'0 1.2 1005.4 -21.3
2017-Dec-02 15:20N 70°28' W 102°18'0 0.0 1005.4 -21.2
2017-Dec-02 15:10N 70°28' W 102°18'0 0.0 1005.5 -21.1
2017-Dec-02 15:00N 70°28' W 102°18'0 0.0 1005.4 -21.1
2017-Dec-02 14:50N 70°28' W 102°18'0 0.0 1005.5 -21.0
2017-Dec-02 14:40N 70°28' W 102°18'0 0.0 1005.5 -20.9
2017-Dec-02 14:10N 70°28' W 102°18'0 0.0 1005.4 -20.7
2017-Dec-02 14:00N 70°28' W 102°18'0 0.0 1005.3 -20.7
2017-Dec-02 13:50N 70°28' W 102°18'0 0.0 1005.3 -20.6
2017-Dec-02 13:30N 70°28' W 102°18'0 0.0 1005.4 -20.4
2017-Dec-02 13:20N 70°28' W 102°18'0 0.0 1005.4 -20.4
2017-Dec-02 13:00N 70°28' W 102°18'0 0.0 1005.1 -20.2
2017-Dec-02 12:50N 70°28' W 102°18'0 0.0 1005.1
2017-Dec-02 12:30N 70°28' W 102°18'0 0.0 1005.0 -19.9
2017-Dec-02 12:20N 70°28' W 102°18'0 0.0 1005.1 -19.8
2017-Dec-02 12:10N 70°28' W 102°18'0 0.0 1005.0 -19.8
2017-Dec-02 11:50N 70°28' W 102°18'0 0.0 1005.0 -19.7
2017-Dec-02 11:40N 70°28' W 102°18'0 0.6 1004.8 -19.7
2017-Dec-02 11:20N 70°28' W 102°17'0 0.0 1004.8 -19.6
2017-Dec-02 11:10N 70°28' W 102°17'0 0.4 -19.6
2017-Dec-02 10:40N 70°28' W 102°17'0 2.4 1004.6 -19.3
2017-Dec-02 10:30N 70°28' W 102°18'0 0.0 1004.6 -19.3
2017-Dec-02 10:10N 70°28' W 102°18'0 0.0 1004.6 -19.2
2017-Dec-02 10:00N 70°28' W 102°18'0 0.0 1004.6 -19.2
2017-Dec-02 09:00N 70°28' W 102°18'0 0.0 1004.3 -19.1
2017-Dec-02 08:50N 70°28' W 102°18'0 0.0 1004.2 -19.1
2017-Dec-02 08:20N 70°28' W 102°18'1 0.7 1004.2 -19.1
2017-Dec-02 07:30N 70°28' W 102°16'1 3.6 1004.0 -19.2
2017-Dec-02 07:20N 70°28' W 102°18'0 0.0 1004.0 -19.2
2017-Dec-02 07:10N 70°28' W 102°18'0 0.0 1004.0 -19.2
2017-Dec-02 06:40N 70°28' W 102°18'0 0.0 1003.9 -19.3
2017-Dec-02 06:30N 70°28' W 102°18'0 0.0 1003.9 -19.3
2017-Dec-02 05:50N 70°28' W 102°18'0 0.0 1003.9 -19.4
2017-Dec-02 05:40N 70°28' W 102°18'0 0.0 1003.8 -19.5
2017-Dec-02 05:30N 70°28' W 102°18'0 0.0 1003.6 -19.5
2017-Dec-02 05:00N 70°28' W 102°18'1 0.9 1003.3
2017-Dec-02 04:20N 70°29' W 102°19'1 3.8 1003.1 -19.6
2017-Dec-02 04:10N 70°28' W 102°18'0 0.0 1003.1 -19.7
2017-Dec-02 04:00N 70°28' W 102°18'0 0.0 1003.1 -19.7
2017-Dec-02 03:50N 70°28' W 102°18'0 0.0 1003.2 -19.8
2017-Dec-02 03:40N 70°28' W 102°18'0 0.6 -19.8
2017-Dec-02 03:20N 70°28' W 102°17'0 0.3 1003.1 -19.9
2017-Dec-02 02:40N 70°28' W 102°18'0 0.0 1002.8 -20.2
2017-Dec-02 02:30N 70°28' W 102°18'0 0.0 1002.8 -20.3
2017-Dec-02 02:20N 70°28' W 102°18'0 0.0 1002.7 -20.4
2017-Dec-02 02:10N 70°28' W 102°18'0 0.0 1002.5 -20.4
2017-Dec-02 02:00N 70°28' W 102°18'0 0.0 1002.4 -20.5
2017-Dec-02 01:40N 70°28' W 102°18'0 0.0 1002.4 -20.6
2017-Dec-02 01:20N 70°28' W 102°18'0 0.0 1002.2 -20.8
2017-Dec-02 01:00N 70°28' W 102°18'0 0.0 1002.1 -20.9
2017-Dec-02 00:50N 70°28' W 102°18'0 0.0 1002.1 -21.0
2017-Dec-02 00:40N 70°28' W 102°18'0 0.0 1002.0 -21.0
2017-Dec-02 00:30N 70°28' W 102°18'0 0.0 1002.1 -21.1
2017-Dec-02 00:20N 70°28' W 102°18'0 0.0 1002.0 -21.1
2017-Dec-02 00:00N 70°28' W 102°18'0 0.0 1002.0 -21.3
2017-Dec-01 23:50N 70°28' W 102°18'1 3.8 1002.0
2017-Dec-01 23:40N 70°28' W 102°17'1 3.8 1001.8 -21.5
2017-Dec-01 23:30N 70°28' W 102°18'0 0.0 1001.8 -21.5
2017-Dec-01 23:20N 70°28' W 102°18'0 0.0 1001.8 -21.5
2017-Dec-01 23:10N 70°28' W 102°18'0 0.0 1001.8 -21.5
2017-Dec-01 23:00N 70°28' W 102°18'0 1.2 1001.7 -21.4
2017-Dec-01 22:50N 70°28' W 102°17'0 1.2 1001.7 -21.2
2017-Dec-01 22:40N 70°28' W 102°18'0 0.6 1001.6 -21.1
2017-Dec-01 22:20N 70°28' W 102°17'0 0.0 1001.4 -20.9
2017-Dec-01 22:00N 70°28' W 102°17'0 1.2 1001.4 -20.8
2017-Dec-01 21:50N 70°28' W 102°18'0 0.0 1001.3 -20.8
2017-Dec-01 21:40N 70°28' W 102°18'0 0.0 1001.3 -20.8
2017-Dec-01 21:30N 70°28' W 102°18'0 0.0 1001.2 -20.8
2017-Dec-01 21:20N 70°28' W 102°18'0 0.0 1001.2 -20.9
2017-Dec-01 21:10N 70°28' W 102°18'0 0.0 1001.2 -21.0
2017-Dec-01 21:00N 70°28' W 102°18'0 0.0
2017-Dec-01 20:50N 70°28' W 102°18'0 0.0 1000.9 -21.1
2017-Dec-01 20:40N 70°28' W 102°18'0 0.0 1000.9 -21.1
2017-Dec-01 20:20N 70°28' W 102°18'0 1.2 1000.7 -21.3
2017-Dec-01 20:10N 70°28' W 102°19'0 0.0 1000.7 -21.5
2017-Dec-01 20:00N 70°28' W 102°19'0 0.0 1000.6 -21.6
2017-Dec-01 19:50N 70°28' W 102°19'0 0.6 1000.6
2017-Dec-01 19:30N 70°28' W 102°18'0 0.0 1000.5 -21.9
2017-Dec-01 19:10N 70°28' W 102°18'0 0.0 1000.3 -22.3
2017-Dec-01 19:00N 70°28' W 102°18'0 0.0 1000.3 -22.6
2017-Dec-01 18:40N 70°28' W 102°18'0 0.0 1000.1 -22.9
2017-Dec-01 18:30N 70°28' W 102°18'0 0.0 1000.1 -23.3
2017-Dec-01 18:20N 70°28' W 102°18'0 0.0 1000.1 -23.2
2017-Dec-01 18:10N 70°28' W 102°18'0 0.0 1000.1 -23.3
2017-Dec-01 17:50N 70°28' W 102°18'0 0.0 999.9 -23.7
2017-Dec-01 17:30N 70°28' W 102°18'0 0.0 999.6 -24.0
2017-Dec-01 17:20N 70°28' W 102°18'0 0.0 999.8 -24.1
2017-Dec-01 17:00N 70°28' W 102°18'0 0.0 999.8 -24.5
2017-Dec-01 16:50N 70°28' W 102°18'0 0.0 999.8 -24.7
2017-Dec-01 16:40N 70°28' W 102°18'0 0.0 999.6 -24.8
2017-Dec-01 16:30N 70°28' W 102°18'   999.6 -24.9
Track history (hours):
 
Tides and Currents Weather Stations Pressure Air Temp Water Temp Dewpoint Dewpoint Depression Visibility Wind Speed Wind Dir Waves Ship Positions

Drifting buoy 48507

Last reported at 2017-Dec-11 16:30 UTC. Time now 2017-Dec-13 16:54 UTC.
Position N 70°28' W 102°18'.

Barometer 1014.8 mb
Air temperature -24.1 ° C

Date/timePositionNaut miles runAvg speedWind from/ knotsBaromVisibWave heightAir tempDewpointWater temp
2017-Dec-11 16:30N 70°28' W 102°18'0 0.0 1014.8 -24.1
2017-Dec-11 16:20N 70°28' W 102°18'0 0.0 1014.8 -24.3
2017-Dec-11 16:10N 70°28' W 102°18'0 0.0 1014.8
2017-Dec-11 15:50N 70°28' W 102°18'0 0.0 1015.1 -24.8
2017-Dec-11 15:40N 70°28' W 102°18'0 2.4 1015.2 -24.9
2017-Dec-11 15:30N 70°28' W 102°17'0 2.4 1015.4 -25.0
2017-Dec-11 15:20N 70°28' W 102°18'0 0.0 1015.5 -25.1
2017-Dec-11 15:10N 70°28' W 102°18'0 0.0 1015.5 -25.3
2017-Dec-11 15:00N 70°28' W 102°18'0 0.0 1015.7 -25.4
2017-Dec-11 14:40N 70°28' W 102°18'0 0.0 1015.9 -25.9
2017-Dec-11 14:30N 70°28' W 102°18'0 0.0 1016.1 -26.1
2017-Dec-11 14:10N 70°28' W 102°18'0 0.6 1016.3 -25.7
2017-Dec-11 13:50N 70°28' W 102°17'0 0.0 1016.3 -25.2
2017-Dec-11 13:30N 70°28' W 102°17'0 1.2 1016.5 -24.8
2017-Dec-11 13:20N 70°28' W 102°18'0 0.0 1016.5 -24.6
2017-Dec-11 13:00N 70°28' W 102°18'0 0.0 1016.5 -24.0
2017-Dec-11 12:50N 70°28' W 102°18'0 0.6 1016.6 -23.7
2017-Dec-11 12:30N 70°28' W 102°17'0 0.4 1016.5 -23.1
2017-Dec-11 12:00N 70°28' W 102°18'0 0.0 1016.3 -22.5
2017-Dec-11 11:50N 70°28' W 102°18'1 3.6 1016.3 -22.5
2017-Dec-11 11:40N 70°28' W 102°20'1 1.2 1016.3 -22.5
2017-Dec-11 11:10N 70°28' W 102°18'0 0.6 1016.6 -22.6
2017-Dec-11 10:50N 70°28' W 102°19'0 0.2 1016.8 -22.7
2017-Dec-11 10:00N 70°28' W 102°18'0 0.0 1017.0 -22.7
2017-Dec-11 09:20N 70°28' W 102°18'0 0.0 1016.9 -22.8
2017-Dec-11 09:10N 70°28' W 102°18'0 0.0 1016.9 -22.8
2017-Dec-11 08:20N 70°28' W 102°18'0 0.0 1016.9 -23.1
2017-Dec-11 08:10N 70°28' W 102°18'0 0.0 1017.0 -23.2
2017-Dec-11 07:40N 70°28' W 102°18'0 0.0 1016.9 -23.3
2017-Dec-11 07:30N 70°28' W 102°18'0 0.1 1017.0 -23.4
2017-Dec-11 06:00N 70°28' W 102°17'0 1.2 1016.9 -24.8
2017-Dec-11 05:50N 70°28' W 102°18'0 0.0 1017.0 -24.9
2017-Dec-11 05:10N 70°28' W 102°18'0 0.2 1017.0 -26.2
2017-Dec-11 04:20N 70°28' W 102°19'1 3.8 1017.0 -27.1
2017-Dec-11 04:10N 70°28' W 102°18'1 1.2 1017.0 -27.2
2017-Dec-11 03:40N 70°28' W 102°18'0 1.2 1017.0 -27.7
2017-Dec-11 03:30N 70°28' W 102°19'0 0.0 1017.0 -27.7
2017-Dec-11 03:20N 70°28' W 102°19'0 0.3 1017.0 -27.7
2017-Dec-11 02:40N 70°28' W 102°18'0 0.0 1017.0 -27.7
2017-Dec-11 02:30N 70°28' W 102°18'0 0.0 1017.0 -27.7
2017-Dec-11 02:00N 70°28' W 102°18'0 0.0 1016.9 -27.6
2017-Dec-11 01:50N 70°28' W 102°18'0 0.0 1016.9 -27.5
2017-Dec-11 01:40N 70°28' W 102°18'1 1.8 1016.9 -27.5
2017-Dec-11 01:20N 70°28' W 102°18'1 1.8 1016.9 -27.3
2017-Dec-11 01:00N 70°28' W 102°18'0 0.0 1016.8 -27.0
2017-Dec-11 00:50N 70°28' W 102°18'0 0.0 1016.8 -26.9
2017-Dec-11 00:20N 70°28' W 102°18'0 1.2 1016.3 -26.2
2017-Dec-11 00:10N 70°28' W 102°17'0 0.0 1016.5 -26.1
2017-Dec-11 00:00N 70°28' W 102°17'0 0.0 1016.3 -25.9
2017-Dec-10 23:40N 70°28' W 102°17'0 0.0 1016.3 -25.5
2017-Dec-10 23:30N 70°28' W 102°17'0 1.2 1016.5 -25.4
2017-Dec-10 23:20N 70°28' W 102°18'0 0.0 1016.5 -25.3
2017-Dec-10 23:10N 70°28' W 102°18'0 0.0 1016.5 -25.2
2017-Dec-10 23:00N 70°28' W 102°18'0 0.0 -25.2
2017-Dec-10 22:40N 70°28' W 102°18'1 3.6 1016.3 -25.4
2017-Dec-10 22:30N 70°28' W 102°18'1 3.8 1016.3 -25.4
2017-Dec-10 22:20N 70°28' W 102°17'0 0.0 1016.3 -25.4
2017-Dec-10 22:00N 70°28' W 102°17'0 1.2 1016.2 -25.2
2017-Dec-10 21:50N 70°28' W 102°18'1 3.8 1016.1 -25.2
2017-Dec-10 21:40N 70°28' W 102°17'1 3.8 1016.1 -25.0
2017-Dec-10 21:30N 70°28' W 102°18'0 0.0 1015.9 -24.9
2017-Dec-10 21:00N 70°28' W 102°18'0 0.0 1015.8 -24.3
2017-Dec-10 20:50N 70°28' W 102°18'0 0.0 -24.1
2017-Dec-10 20:20N 70°28' W 102°18'0 0.0 1015.5 -23.5
2017-Dec-10 20:10N 70°28' W 102°18'0 1.2 1015.5 -23.4
2017-Dec-10 20:00N 70°28' W 102°17'0 1.2 1015.4 -23.3
2017-Dec-10 19:50N 70°28' W 102°18'0 0.0 1015.4 -23.2
2017-Dec-10 19:20N 70°28' W 102°18'0 0.0 1015.2 -22.6
2017-Dec-10 19:10N 70°28' W 102°18'0 0.0 1015.1
2017-Dec-10 19:00N 70°28' W 102°18'0 0.0 1015.0 -21.8
2017-Dec-10 18:40N 70°28' W 102°18'0 0.0 1014.8 -21.5
2017-Dec-10 18:30N 70°28' W 102°18'0 0.0 1014.8 -21.3
2017-Dec-10 18:20N 70°28' W 102°18'0 1.2 1014.7 -21.2
2017-Dec-10 18:10N 70°28' W 102°17'0 0.0 1014.7 -21.2
2017-Dec-10 18:00N 70°28' W 102°17'0 0.0 -21.2
2017-Dec-10 17:40N 70°28' W 102°17'0 0.0 1014.6 -21.4
2017-Dec-10 17:30N 70°28' W 102°17'0 0.0 1014.6 -21.6
2017-Dec-10 17:00N 70°28' W 102°17'0 0.0 1014.3 -21.8
2017-Dec-10 16:50N 70°28' W 102°17'0 0.0 1014.4 -21.8
2017-Dec-10 16:40N 70°28' W 102°17'0 0.0 1014.4 -21.9
2017-Dec-10 16:30N 70°28' W 102°17'0 0.0 1014.6 -22.0
2017-Dec-10 16:20N 70°28' W 102°17'0 0.6 1014.4 -22.2
2017-Dec-10 16:00N 70°28' W 102°18'0 0.0 1014.4 -22.6
2017-Dec-10 15:50N 70°28' W 102°18'0 0.0 1014.3 -22.6
2017-Dec-10 15:40N 70°28' W 102°18'0 0.0 1014.4 -22.7
2017-Dec-10 15:20N 70°28' W 102°18'0 0.0 1014.2 -23.0
2017-Dec-10 15:10N 70°28' W 102°18'0 1.2 1014.2 -23.1
2017-Dec-10 15:00N 70°28' W 102°19'0 1.2 1014.0 -23.0
2017-Dec-10 14:50N 70°28' W 102°18'0 0.0 1014.0 -22.9
2017-Dec-10 14:40N 70°28' W 102°18'0 0.0 1014.0
2017-Dec-10 14:10N 70°28' W 102°18'0 0.0 1013.9 -22.6
2017-Dec-10 13:40N 70°28' W 102°18'0 0.0 1014.0 -22.5
2017-Dec-10 13:30N 70°28' W 102°18'0 0.6 1013.9 -22.5
2017-Dec-10 13:10N 70°28' W 102°19'0 1.2 1013.9 -22.4
2017-Dec-10 13:00N 70°28' W 102°18'0 0.4 1013.9 -22.4
2017-Dec-10 12:30N 70°28' W 102°19'0 1.2 1013.6 -22.4
2017-Dec-10 12:20N 70°28' W 102°18'0 0.6 1013.6 -22.6
2017-Dec-10 12:00N 70°28' W 102°19'0 0.0 1013.5 -22.9
2017-Dec-10 11:50N 70°28' W 102°19'0 0.6 1013.6 -23.1
2017-Dec-10 11:30N 70°28' W 102°18'0 1.2 1013.5 -23.4
2017-Dec-10 11:20N 70°28' W 102°17'0 0.0 1013.5 -23.6
2017-Dec-10 10:40N 70°28' W 102°17'0 0.4 1013.5 -24.4
2017-Dec-10 10:10N 70°28' W 102°18'0 0.6 1013.6 -24.8
2017-Dec-10 09:50N 70°28' W 102°19'0 1.2 1013.6 -25.0
2017-Dec-10 09:40N 70°28' W 102°19'0 0.0 1013.6 -25.1
2017-Dec-10 08:30N 70°28' W 102°19'0 0.6 1013.7 -26.2
2017-Dec-10 08:10N 70°28' W 102°19'0 0.0 1013.7 -26.4
2017-Dec-10 08:00N 70°28' W 102°19'0 0.2 1013.6 -26.5
2017-Dec-10 06:50N 70°28' W 102°18'0 0.0 1013.5 -28.4
2017-Dec-10 06:40N 70°28' W 102°18'0 0.0 1013.5
2017-Dec-10 06:30N 70°28' W 102°18'0 0.0 1013.6 -29.1
2017-Dec-10 06:20N 70°28' W 102°18'0 0.0 1013.7 -29.3
2017-Dec-10 05:40N 70°28' W 102°18'0 0.0 1013.5 -29.9
2017-Dec-10 04:50N 70°28' W 102°18'0 0.0 1013.2 -29.7
2017-Dec-10 04:40N 70°28' W 102°18'0 1.2 1013.2 -29.7
2017-Dec-10 04:30N 70°28' W 102°19'1 3.8 1013.2 -29.6
2017-Dec-10 04:20N 70°28' W 102°18'1 1.8 1013.2 -29.6
2017-Dec-10 04:00N 70°28' W 102°18'0 1.2 1013.2 -29.5
2017-Dec-10 03:50N 70°28' W 102°19'0 0.0 1013.3 -29.5
2017-Dec-10 03:40N 70°28' W 102°19'0 0.4 1013.3
2017-Dec-10 03:10N 70°28' W 102°18'0 1.2 1013.2 -29.3
2017-Dec-10 03:00N 70°28' W 102°19'0 1.2 1013.2 -29.3
2017-Dec-10 02:50N 70°28' W 102°18'0 1.2 1013.2 -29.3
2017-Dec-10 02:40N 70°28' W 102°17'0 0.0 1013.2 -29.4
2017-Dec-10 02:20N 70°28' W 102°17'0 2.4 1013.3 -29.4
2017-Dec-10 02:10N 70°28' W 102°19'0 0.0 1013.3 -29.4
2017-Dec-10 02:00N 70°28' W 102°19'0 0.0 1013.5 -29.5
2017-Dec-10 01:30N 70°28' W 102°19'0 2.4 1013.6 -29.6
2017-Dec-10 01:20N 70°28' W 102°17'0 1.2 1013.6 -29.7
2017-Dec-10 01:10N 70°28' W 102°18'0 1.2 1013.7 -29.7
2017-Dec-10 01:00N 70°28' W 102°17'0 0.0 1013.7 -29.6
2017-Dec-10 00:40N 70°28' W 102°17'0 0.0 1013.9 -29.7
2017-Dec-10 00:30N 70°28' W 102°17'0 0.0 1013.9 -29.7
2017-Dec-10 00:20N 70°28' W 102°17'0 0.4 1013.9 -29.7
2017-Dec-09 23:50N 70°28' W 102°18'0 0.0 1013.7 -29.5
2017-Dec-09 23:40N 70°28' W 102°18'0 0.0 1013.7 -29.4
2017-Dec-09 23:30N 70°28' W 102°18'0 1.2 1013.6 -29.4
2017-Dec-09 23:20N 70°28' W 102°17'0 0.0 1013.6 -29.3
2017-Dec-09 23:00N 70°28' W 102°17'0 1.2 1013.6 -29.2
2017-Dec-09 22:50N 70°28' W 102°17'0 1.2 1013.9 -29.1
2017-Dec-09 22:40N 70°28' W 102°17'0 0.4 1013.7 -29.1
2017-Dec-09 22:10N 70°28' W 102°18'0 0.0 1013.7 -29.1
2017-Dec-09 22:00N 70°28' W 102°18'0 0.0 1013.7 -29.1
2017-Dec-09 21:50N 70°28' W 102°18'0 0.0 1013.9 -29.1
2017-Dec-09 21:40N 70°28' W 102°18'0 0.0 1013.7 -29.2
2017-Dec-09 21:20N 70°28' W 102°18'0 1.2 1013.9 -29.4
2017-Dec-09 21:10N 70°28' W 102°17'0 0.0 1014.0 -29.5
2017-Dec-09 20:30N 70°28' W 102°17'0 1.2 1014.0 -30.0
2017-Dec-09 20:20N 70°28' W 102°18'0 0.0 1014.0 -30.1
2017-Dec-09 20:10N 70°28' W 102°18'0 0.0 1014.0 -30.1
2017-Dec-09 20:00N 70°28' W 102°18'0 0.0 1014.0 -30.1
2017-Dec-09 19:40N 70°28' W 102°18'0 1.2 1013.9 -29.9
2017-Dec-09 19:30N 70°28' W 102°17'0 1.2 1013.9 -29.9
2017-Dec-09 19:20N 70°28' W 102°18'0 0.4 1013.7 -29.9
2017-Dec-09 18:50N 70°28' W 102°17'0 0.0 1013.7 -29.9
2017-Dec-09 18:40N 70°28' W 102°17'0 0.0 1013.6 -29.9
2017-Dec-09 18:30N 70°28' W 102°17'0 0.0 1013.5 -30.0
2017-Dec-09 18:20N 70°28' W 102°17'1 1.9 1013.5 -30.0
2017-Dec-09 18:00N 70°28' W 102°18'1 3.6 1013.3 -30.0
2017-Dec-09 17:50N 70°28' W 102°18'0 0.0 1013.3 -29.9
2017-Dec-09 17:10N 70°28' W 102°18'0 0.0 1013.3 -29.7
2017-Dec-09 17:00N 70°28' W 102°18'0 0.0 1013.2 -29.7
2017-Dec-09 16:50N 70°28' W 102°18'0 0.0 1013.2 -29.6
2017-Dec-09 16:40N 70°28' W 102°18'0 0.0 1013.2 -29.6
2017-Dec-09 16:20N 70°28' W 102°18'0 0.0 1013.2 -29.4
2017-Dec-09 16:10N 70°28' W 102°18'0 0.0 1013.2 -29.3
2017-Dec-09 16:00N 70°28' W 102°18'0 0.0 1013.2 -29.3
2017-Dec-09 15:30N 70°28' W 102°18'0 1.2 1013.5 -29.1
2017-Dec-09 15:20N 70°28' W 102°17'0 1.2 1013.5 -29.0
2017-Dec-09 15:10N 70°28' W 102°18'0 0.0 1013.5 -28.9
2017-Dec-09 15:00N 70°28' W 102°18'0 0.0 1013.5 -28.8
2017-Dec-09 14:40N 70°28' W 102°18'0 0.0 1013.3 -28.7
2017-Dec-09 14:30N 70°28' W 102°18'0 0.0 1013.5 -28.6
2017-Dec-09 13:50N 70°28' W 102°18'0 0.0 1013.5 -28.3
2017-Dec-09 13:40N 70°28' W 102°18'0 0.0 1013.5 -28.2
2017-Dec-09 13:30N 70°28' W 102°18'0 0.0 1013.5 -28.1
2017-Dec-09 13:20N 70°28' W 102°18'0 0.0 1013.6 -27.9
2017-Dec-09 12:50N 70°28' W 102°18'0 0.0 1013.6 -27.2
2017-Dec-09 12:40N 70°28' W 102°18'0 0.8 1013.6 -27.1
2017-Dec-09 12:10N 70°28' W 102°19'1 3.6 1013.7 -26.8
2017-Dec-09 12:00N 70°28' W 102°17'0 0.0 1013.6 -26.6
2017-Dec-09 11:50N 70°28' W 102°17'0 0.0 1013.7 -26.3
2017-Dec-09 11:40N 70°28' W 102°17'0 0.0 1013.7 -26.2
2017-Dec-09 11:30N 70°28' W 102°17'0 0.0 1013.9 -25.9
2017-Dec-09 11:10N 70°28' W 102°17'0 0.0 1013.9 -25.6
2017-Dec-09 11:00N 70°28' W 102°17'0 0.4 1013.7 -25.4
2017-Dec-09 10:30N 70°28' W 102°18'0 0.0 1013.7 -25.4
2017-Dec-09 10:20N 70°28' W 102°18'0 0.0 1013.5 -25.5
2017-Dec-09 10:10N 70°28' W 102°18'0 0.0 1013.3 -25.9
2017-Dec-09 08:40N 70°28' W 102°18'0 0.0 1013.6 -25.8
2017-Dec-09 08:30N 70°28' W 102°18'1 0.5 1013.5 -25.9
2017-Dec-09 07:00N 70°29' W 102°19'1 5.1 1013.5 -25.3
2017-Dec-09 06:50N 70°28' W 102°17'0 0.0 1013.3 -25.2
2017-Dec-09 06:40N 70°28' W 102°17'0 0.0 1013.2 -25.2
2017-Dec-09 06:00N 70°28' W 102°17'0 1.2 1012.8 -25.1
2017-Dec-09 05:50N 70°28' W 102°18'0 0.0 1012.8
2017-Dec-09 05:20N 70°28' W 102°18'0 0.0 1012.9 -25.1
2017-Dec-09 05:10N 70°28' W 102°18'0 0.0 1012.8 -24.8
2017-Dec-09 05:00N 70°28' W 102°18'0 0.0 1012.9 -24.5
2017-Dec-09 04:40N 70°28' W 102°18'0 0.0 1012.6 -24.3
2017-Dec-09 04:30N 70°28' W 102°18'0 0.0 1012.6 -24.3
2017-Dec-09 04:10N 70°28' W 102°18'0 0.0 1012.8 -24.2
2017-Dec-09 03:40N 70°28' W 102°18'0 0.0 1012.5 -24.3
2017-Dec-09 03:30N 70°28' W 102°18'0 1.2 1012.6 -24.3
2017-Dec-09 03:20N 70°28' W 102°17'0 0.0 1012.6 -24.3
2017-Dec-09 03:10N 70°28' W 102°17'0 1.2 1012.6 -24.3
2017-Dec-09 03:00N 70°28' W 102°18'0 1.2 1012.6 -24.4
2017-Dec-09 02:50N 70°28' W 102°19'0 0.0 1012.6 -24.5
2017-Dec-09 02:40N 70°28' W 102°19'0 0.0 1012.6 -24.5
2017-Dec-09 02:30N 70°28' W 102°19'0 0.0 1012.8 -24.5
2017-Dec-09 02:00N 70°28' W 102°19'0 1.2 1012.6 -24.3
2017-Dec-09 01:50N 70°28' W 102°18'0 0.0 1012.6
2017-Dec-09 01:40N 70°28' W 102°18'0 0.6 1012.9 -24.1
2017-Dec-09 01:20N 70°28' W 102°17'0 1.2 1012.6 -23.9
2017-Dec-09 01:10N 70°28' W 102°18'0 0.0 1012.6 -23.7
2017-Dec-09 01:00N 70°28' W 102°18'0 0.0 1012.8 -23.4
2017-Dec-09 00:50N 70°28' W 102°18'1 2.8 1012.9 -23.2
2017-Dec-09 00:20N 70°28' W 102°22'1 4.2 1012.9 -22.4
2017-Dec-09 00:00N 70°28' W 102°18'0 0.0 1013.2 -22.2
2017-Dec-08 23:50N 70°28' W 102°18'0 0.0 1013.1 -22.2
2017-Dec-08 23:40N 70°28' W 102°18'0 0.0 1013.1 -22.3
2017-Dec-08 23:30N 70°28' W 102°18'0 0.0 1013.1 -22.4
2017-Dec-08 23:20N 70°28' W 102°18'0 0.0 1013.1 -22.5
2017-Dec-08 23:10N 70°28' W 102°18'0 0.0 1012.9 -22.6
2017-Dec-08 22:40N 70°28' W 102°18'0 0.0 1012.9 -22.8
2017-Dec-08 22:30N 70°28' W 102°18'0 1.2 1012.9
2017-Dec-08 22:20N 70°28' W 102°17'0 1.2 1012.8 -22.9
2017-Dec-08 22:10N 70°28' W 102°18'0 0.0 1012.9 -23.0
2017-Dec-08 22:00N 70°28' W 102°18'0 0.0 1012.8 -22.9
2017-Dec-08 21:50N 70°28' W 102°18'0 0.0 1012.6 -22.7
2017-Dec-08 21:40N 70°28' W 102°18'0 0.0 1012.6 -22.6
2017-Dec-08 21:30N 70°28' W 102°18'0 0.0 1012.6 -22.6
2017-Dec-08 21:00N 70°28' W 102°18'0 0.0 1012.4 -22.3
2017-Dec-08 20:50N 70°28' W 102°18'0 0.0 1012.5 -22.3
2017-Dec-08 20:40N 70°28' W 102°18'0 0.0 1012.5 -22.1
2017-Dec-08 20:30N 70°28' W 102°18'0 0.0 1012.4 -21.8
2017-Dec-08 20:20N 70°28' W 102°18'0 0.0 1012.1 -21.6
2017-Dec-08 20:10N 70°28' W 102°18'1 3.8 1012.2 -21.5
2017-Dec-08 20:00N 70°28' W 102°17'1 3.8 1012.2 -21.4
2017-Dec-08 19:50N 70°28' W 102°18'0 0.0 1012.1 -21.4
2017-Dec-08 19:00N 70°28' W 102°18'0 0.0 1012.5 -21.4
2017-Dec-08 18:50N 70°28' W 102°18'0 0.0 1012.4 -21.4
2017-Dec-08 18:40N 70°28' W 102°18'0 1.2 1012.4 -21.4
2017-Dec-08 18:30N 70°28' W 102°17'0 1.2 1012.4 -21.5
2017-Dec-08 18:20N 70°28' W 102°18'0 0.0 1012.5 -21.7
2017-Dec-08 18:10N 70°28' W 102°18'0 0.0 1012.5 -21.9
2017-Dec-08 17:20N 70°28' W 102°18'0 0.0 1013.1 -22.7
2017-Dec-08 17:10N 70°28' W 102°18'0 1.2 1013.1 -22.8
2017-Dec-08 17:00N 70°28' W 102°17'0 1.2 1012.9 -23.0
2017-Dec-08 16:50N 70°28' W 102°18'0 0.0 1013.1 -22.9
2017-Dec-08 16:40N 70°28' W 102°18'0 1.2 1012.9 -22.9
2017-Dec-08 16:30N 70°28' W 102°19'0 0.0 1013.1 -22.9
2017-Dec-08 15:50N 70°28' W 102°19'0 1.2 1013.1 -22.8
2017-Dec-08 15:40N 70°28' W 102°18'0 0.0 1013.2 -22.8
2017-Dec-08 15:30N 70°28' W 102°18'0 0.0 1013.2 -22.7
2017-Dec-08 15:20N 70°28' W 102°18'0 1.2 1013.5 -22.5
2017-Dec-08 15:10N 70°28' W 102°17'0 0.0 1013.5 -22.4
2017-Dec-08 15:00N 70°28' W 102°17'0 1.2 1013.5 -22.3
2017-Dec-08 14:50N 70°28' W 102°18'0 0.0 1013.6 -22.2
2017-Dec-08 14:10N 70°28' W 102°18'0 0.0 1014.0 -22.0
2017-Dec-08 14:00N 70°28' W 102°18'0 0.0 1014.2
2017-Dec-08 13:50N 70°28' W 102°18'0 0.0 1014.2 -22.2
2017-Dec-08 13:30N 70°28' W 102°18'0 0.0 1014.4 -22.2
2017-Dec-08 13:20N 70°28' W 102°18'0 0.0 1014.4 -22.2
2017-Dec-08 13:10N 70°28' W 102°18'0 0.0 1014.6 -22.2
2017-Dec-08 12:30N 70°28' W 102°18'0 1.2 1014.7 -21.7
2017-Dec-08 12:20N 70°28' W 102°17'0 0.0 1014.8 -21.5
2017-Dec-08 12:10N 70°28' W 102°17'0 0.0 1014.8 -21.2
2017-Dec-08 11:50N 70°28' W 102°17'0 0.0 1014.8 -20.7
2017-Dec-08 11:40N 70°28' W 102°17'0 1.2 1015.0 -20.4
2017-Dec-08 11:30N 70°28' W 102°18'0 0.0 1014.8 -20.3
2017-Dec-08 10:50N 70°28' W 102°18'0 0.0 1014.8 -19.2
2017-Dec-08 10:40N 70°28' W 102°18'0 0.0 1014.8 -19.1
2017-Dec-08 10:30N 70°28' W 102°18'0 0.0 1014.8 -18.9
2017-Dec-08 09:50N 70°28' W 102°18'0 0.0 1015.0 -18.4
2017-Dec-08 09:10N 70°28' W 102°18'0 0.0 1015.1 -18.5
2017-Dec-08 09:00N 70°28' W 102°18'0 0.0 1015.1 -18.5
2017-Dec-08 08:50N 70°28' W 102°18'0 0.0 1015.0 -18.5
2017-Dec-08 07:30N 70°28' W 102°18'0 0.0 1015.0 -18.7
2017-Dec-08 07:20N 70°28' W 102°18'0 1.2 1015.0 -18.8
2017-Dec-08 07:10N 70°28' W 102°17'0 1.2 1014.8 -18.9
2017-Dec-08 07:00N 70°28' W 102°18'0 0.0 1014.8 -18.9
2017-Dec-08 06:20N 70°28' W 102°18'0 0.0 -19.1
2017-Dec-08 05:50N 70°28' W 102°18'0 0.0 1014.6 -19.2
2017-Dec-08 05:40N 70°28' W 102°18'0 0.0 1014.4 -19.2
2017-Dec-08 05:30N 70°28' W 102°18'0 0.0 1014.6 -19.2
2017-Dec-08 05:20N 70°28' W 102°18'0 0.4 1014.6 -19.3
2017-Dec-08 04:50N 70°28' W 102°19'0 1.2 1014.6 -19.4
2017-Dec-08 04:40N 70°28' W 102°18'0 0.0 1014.6 -19.4
2017-Dec-08 04:30N 70°28' W 102°18'0 0.0 1014.4 -19.4
2017-Dec-08 04:10N 70°28' W 102°18'0 0.0 1014.4 -19.5
2017-Dec-08 04:00N 70°28' W 102°18'0 0.0 -19.5
2017-Dec-08 03:40N 70°28' W 102°18'0 0.0 1014.3 -19.6
2017-Dec-08 03:30N 70°28' W 102°18'0 0.0 1014.3
2017-Dec-08 03:10N 70°28' W 102°18'0 0.0 1014.3 -20.0
2017-Dec-08 03:00N 70°28' W 102°18'0 0.0 1014.4 -20.2
2017-Dec-08 02:50N 70°28' W 102°18'0 0.0 1014.4 -20.2
2017-Dec-08 02:30N 70°28' W 102°18'0 0.0 1014.3 -20.2
2017-Dec-08 02:00N 70°28' W 102°18'1 3.8 1014.4 -20.3
2017-Dec-08 01:50N 70°28' W 102°19'1 1.9 1014.6 -20.2
2017-Dec-08 01:30N 70°28' W 102°18'0 0.0 1014.6 -20.0
2017-Dec-08 01:20N 70°28' W 102°18'0 0.0 1014.6 -19.9
2017-Dec-08 01:10N 70°28' W 102°18'0 0.0 1014.7 -19.8
2017-Dec-08 01:00N 70°28' W 102°18'0 0.0 1014.8 -19.7
2017-Dec-08 00:50N 70°28' W 102°18'0 0.0 1014.7 -19.6
2017-Dec-08 00:20N 70°28' W 102°18'0 0.0 1014.8 -19.7
2017-Dec-08 00:10N 70°28' W 102°18'0 0.0 1014.8 -19.7
2017-Dec-07 23:50N 70°28' W 102°18'0 0.0 1015.1 -19.7
2017-Dec-07 23:40N 70°28' W 102°18'0 0.0 1015.1 -19.7
2017-Dec-07 23:30N 70°28' W 102°18'0 0.0 1015.1 -19.7
2017-Dec-07 23:10N 70°28' W 102°18'0 0.0 1015.1 -19.6
2017-Dec-07 22:40N 70°28' W 102°18'0 1.2 1015.2 -19.7
2017-Dec-07 22:30N 70°28' W 102°17'0 1.2 1015.4 -19.7
2017-Dec-07 22:20N 70°28' W 102°18'0 0.0 1015.4 -19.7
2017-Dec-07 22:10N 70°28' W 102°18'0 0.0 1015.4 -19.7
2017-Dec-07 22:00N 70°28' W 102°18'0 1.2 1015.5 -19.8
2017-Dec-07 21:50N 70°28' W 102°17'0 0.6 1015.7 -19.8
2017-Dec-07 21:30N 70°28' W 102°18'0 0.4 1015.8 -19.8
2017-Dec-07 21:00N 70°28' W 102°17'0 0.0 1016.2 -19.9
2017-Dec-07 20:50N 70°28' W 102°17'0 1.2 1016.2 -20.0
2017-Dec-07 20:40N 70°28' W 102°18'0 0.0 1016.2 -20.0
2017-Dec-07 20:30N 70°28' W 102°18'1 3.8 1016.3 -20.0
2017-Dec-07 20:20N 70°28' W 102°17'1 3.8 1016.3 -20.0
2017-Dec-07 20:10N 70°28' W 102°18'0 0.0 1016.5 -20.1
2017-Dec-07 19:10N 70°28' W 102°18'0 0.0 1017.0 -20.4
2017-Dec-07 19:00N 70°28' W 102°18'0 0.0 1017.2 -20.4
2017-Dec-07 18:50N 70°28' W 102°18'0 0.0 1017.2 -20.5
2017-Dec-07 18:40N 70°28' W 102°18'0 0.0 1017.4 -20.5
2017-Dec-07 18:30N 70°28' W 102°18'0 0.0 1017.4 -20.6
2017-Dec-07 17:50N 70°28' W 102°18'0 0.0 1017.8 -20.5
2017-Dec-07 17:30N 70°28' W 102°18'0 0.0 1018.0 -20.4
2017-Dec-07 17:20N 70°28' W 102°18'0 1.2 1018.0 -20.3
2017-Dec-07 17:10N 70°28' W 102°17'0 1.2 1018.1 -20.2
2017-Dec-07 17:00N 70°28' W 102°18'1 4.3 1018.3 -20.1
2017-Dec-07 16:50N 70°28' W 102°19'0 0.0 1018.1 -19.9
2017-Dec-07 16:20N 70°28' W 102°19'0 0.0 1018.5 -19.6
2017-Dec-07 16:10N 70°28' W 102°19'1 3.6 1018.7 -19.6
2017-Dec-07 16:00N 70°28' W 102°19'0 2.4 1018.9 -19.6
2017-Dec-07 15:50N 70°28' W 102°18'0 0.0 1018.9 -19.6
2017-Dec-07 15:40N 70°28' W 102°18'0 0.0 1019.1 -19.5
2017-Dec-07 15:30N 70°28' W 102°18'0 0.0 1019.2 -19.5
2017-Dec-07 15:20N 70°28' W 102°18'0 0.0 1019.4 -19.5
2017-Dec-07 15:10N 70°28' W 102°18'0 0.0 -19.5
2017-Dec-07 14:40N 70°28' W 102°18'0 0.4 1020.0 -19.5
2017-Dec-07 14:10N 70°28' W 102°17'0 0.0 1020.5 -19.6
2017-Dec-07 14:00N 70°28' W 102°17'0 0.6 1020.6 -19.6
2017-Dec-07 13:40N 70°28' W 102°18'0 0.0 1020.6 -19.6
2017-Dec-07 13:30N 70°28' W 102°18'0 0.0 1020.6 -19.7
2017-Dec-07 13:00N 70°28' W 102°18'0 1.2 1020.7 -19.7
2017-Dec-07 12:50N 70°28' W 102°17'0 0.0 1020.7 -19.7
2017-Dec-07 12:30N 70°28' W 102°17'0 1.2 1020.9 -19.7
2017-Dec-07 12:20N 70°28' W 102°18'0 0.0 1021.0 -19.7
2017-Dec-07 12:00N 70°28' W 102°18'0 0.0 1021.0 -19.7
2017-Dec-07 11:50N 70°28' W 102°18'0 0.0 1021.0 -19.7
2017-Dec-07 11:20N 70°28' W 102°18'0 0.0 1021.1 -19.6
2017-Dec-07 11:10N 70°28' W 102°18'0 0.0 1021.1 -19.6
2017-Dec-07 10:50N 70°28' W 102°18'0 0.0 1021.3 -19.4
2017-Dec-07 10:40N 70°28' W 102°18'0 0.6 1021.4 -19.4
2017-Dec-07 10:20N 70°28' W 102°17'0 0.0 1021.7 -19.3
2017-Dec-07 10:10N 70°28' W 102°17'0 0.4 1021.8 -19.3
2017-Dec-07 09:40N 70°28' W 102°18'0 0.0 1021.8 -19.2
2017-Dec-07 09:30N 70°28' W 102°18'0 0.0 1021.8 -19.2
2017-Dec-07 09:10N 70°28' W 102°18'0 0.0 1021.8 -19.2
2017-Dec-07 09:00N 70°28' W 102°18'0 0.0 1022.0 -19.2
2017-Dec-07 08:00N 70°28' W 102°18'0 0.0 1022.0 -19.3
2017-Dec-07 07:50N 70°28' W 102°18'0 0.6 1021.8 -19.3
2017-Dec-07 07:30N 70°28' W 102°17'0 1.2 1021.7 -19.3
2017-Dec-07 07:20N 70°28' W 102°18'0 0.0 1021.7 -19.3
2017-Dec-07 06:20N 70°28' W 102°18'0 0.0 1022.0 -19.2
2017-Dec-07 06:10N 70°28' W 102°18'0 0.0 1022.0 -19.2
2017-Dec-07 05:40N 70°28' W 102°18'0 0.0 1021.8 -19.2
2017-Dec-07 05:00N 70°28' W 102°18'0 0.0 1022.0 -19.3
2017-Dec-07 04:50N 70°28' W 102°18'0 0.0 1022.0 -19.3
2017-Dec-07 04:40N 70°28' W 102°18'0 0.0 1022.1 -19.3
2017-Dec-07 04:10N 70°28' W 102°18'0 0.0 1022.0 -19.4
2017-Dec-07 04:00N 70°28' W 102°18'0 0.0 1022.0 -19.4
2017-Dec-07 03:20N 70°28' W 102°18'0 0.0 1021.8 -19.6
2017-Dec-07 03:10N 70°28' W 102°18'0 0.0 1021.8 -19.6
2017-Dec-07 03:00N 70°28' W 102°18'0 0.0 1022.0 -19.7
2017-Dec-07 02:20N 70°28' W 102°18'0 0.0 1022.1 -19.9
2017-Dec-07 02:10N 70°28' W 102°18'0 0.0 1022.1 -19.9
2017-Dec-07 01:40N 70°28' W 102°18'0 0.0 1022.2 -20.0
2017-Dec-07 01:30N 70°28' W 102°18'0 0.0 1022.2 -20.0
2017-Dec-07 01:20N 70°28' W 102°18'0 0.0 1022.4 -20.1
2017-Dec-07 00:40N 70°28' W 102°18'0 0.0 1022.2 -20.1
2017-Dec-07 00:30N 70°28' W 102°18'0 0.0 1022.2 -20.1
2017-Dec-07 00:20N 70°28' W 102°18'0 0.6 1022.2 -20.0
2017-Dec-07 00:00N 70°28' W 102°19'1 3.8 1022.5 -19.9
2017-Dec-06 23:50N 70°28' W 102°18'1 3.6 1022.5 -19.9
2017-Dec-06 23:40N 70°28' W 102°18'1 0.9 1022.4 -19.9
2017-Dec-06 23:00N 70°28' W 102°18'1 1.8 1022.1 -19.9
2017-Dec-06 22:40N 70°28' W 102°18'1 1.9 1022.4 -19.8
2017-Dec-06 22:20N 70°28' W 102°17'1 1.9 1022.2 -19.6
2017-Dec-06 22:00N 70°28' W 102°18'0 0.0 1022.0 -19.5
2017-Dec-06 21:20N 70°28' W 102°18'0 0.0 1022.1 -19.4
2017-Dec-06 21:00N 70°28' W 102°18'0 0.0 1022.0 -19.4
2017-Dec-06 20:50N 70°28' W 102°18'0 0.0 1022.0 -19.4
2017-Dec-06 20:40N 70°28' W 102°18'0 0.0 1022.0 -19.4
2017-Dec-06 20:30N 70°28' W 102°18'0 0.0 1022.0 -19.4
2017-Dec-06 19:50N 70°28' W 102°18'0 0.0 1021.8 -19.6
2017-Dec-06 19:20N 70°28' W 102°18'0 0.0 1021.7 -19.8
2017-Dec-06 19:10N 70°28' W 102°18'1 4.3 1021.7 -19.8
2017-Dec-06 19:00N 70°28' W 102°17'1 4.3 1021.5 -19.8
2017-Dec-06 18:50N 70°28' W 102°18'0 0.0 1021.5 -19.8
2017-Dec-06 18:00N 70°28' W 102°18'0 0.0 1021.7 -19.7
2017-Dec-06 17:40N 70°28' W 102°18'0 0.0 1021.5 -19.7
2017-Dec-06 17:30N 70°28' W 102°18'0 0.0 1021.5 -19.7
2017-Dec-06 17:20N 70°28' W 102°18'0 0.0 1021.4 -19.6
2017-Dec-06 17:10N 70°28' W 102°18'0 0.0 1021.3 -19.6
2017-Dec-06 16:00N 70°28' W 102°18'0 1.2 1021.1 -19.4
2017-Dec-06 15:50N 70°28' W 102°17'0 1.2 1021.1 -19.3
2017-Dec-06 15:40N 70°28' W 102°18'0 0.0 1020.9 -19.3
2017-Dec-06 15:30N 70°28' W 102°18'0 0.0 1020.9 -19.2
2017-Dec-06 15:10N 70°28' W 102°18'0 0.0 1020.7 -19.5
2017-Dec-06 14:30N 70°28' W 102°18'0 0.0 -19.1
2017-Dec-06 14:20N 70°28' W 102°18'0 0.0 1020.3 -19.0
2017-Dec-06 14:10N 70°28' W 102°18'0 1.2 1020.3 -19.0
2017-Dec-06 14:00N 70°28' W 102°17'0 1.2 1020.3 -19.0
2017-Dec-06 13:50N 70°28' W 102°18'0 0.0 1020.3 -18.9
2017-Dec-06 13:30N 70°28' W 102°18'0 1.2 1020.2 -18.9
2017-Dec-06 13:20N 70°28' W 102°17'0 0.6 1020.2 -18.9
2017-Dec-06 13:00N 70°28' W 102°18'0 0.6 1020.2 -18.9
2017-Dec-06 12:40N 70°28' W 102°17'0 1.2 1019.9 -18.9
2017-Dec-06 12:30N 70°28' W 102°18'0 1.2 1019.9 -18.9
2017-Dec-06 12:20N 70°28' W 102°17'0 1.2 1019.9 -18.9
2017-Dec-06 12:10N 70°28' W 102°18'0 0.0 1019.8 -18.9
2017-Dec-06 11:50N 70°28' W 102°18'0 0.0 1020.0 -19.0
2017-Dec-06 11:40N 70°28' W 102°18'0 0.0 1020.0 -19.0
2017-Dec-06 11:00N 70°28' W 102°18'0 0.0 1020.2 -19.0
2017-Dec-06 10:50N 70°28' W 102°18'0 0.0 1020.2 -18.9
2017-Dec-06 10:40N 70°28' W 102°18'0 0.0 1020.0 -18.9
2017-Dec-06 10:30N 70°28' W 102°18'0 0.0 1019.9 -18.8
2017-Dec-06 10:10N 70°28' W 102°18'0 0.0 1019.9 -18.8
2017-Dec-06 10:00N 70°28' W 102°18'0 0.0 1020.0 -18.8
2017-Dec-06 09:20N 70°28' W 102°18'0 0.0 1019.8 -18.7
2017-Dec-06 09:10N 70°28' W 102°18'0 0.0 1019.8 -18.6
2017-Dec-06 08:30N 70°28' W 102°18'0 0.0 1019.6 -18.5
2017-Dec-06 08:20N 70°28' W 102°18'0 0.0 1019.6 -18.5
2017-Dec-06 07:50N 70°28' W 102°18'0 0.0 1019.8 -18.4
2017-Dec-06 07:40N 70°28' W 102°18'0 1.2 1019.8 -18.4
2017-Dec-06 07:30N 70°28' W 102°17'0 0.0 1019.8 -18.5
2017-Dec-06 06:50N 70°28' W 102°17'0 0.0 1019.9 -18.5
2017-Dec-06 06:40N 70°28' W 102°17'0 0.8 -18.5
2017-Dec-06 06:10N 70°28' W 102°19'0 1.2 1020.2 -18.4
2017-Dec-06 06:00N 70°28' W 102°18'0 0.0 1020.3 -18.4
2017-Dec-06 05:20N 70°28' W 102°18'0 0.0 1020.7 -18.5
2017-Dec-06 05:10N 70°28' W 102°18'0 0.3 1020.9 -18.6
2017-Dec-06 04:30N 70°28' W 102°19'0 0.0 1021.0 -18.7
2017-Dec-06 04:20N 70°28' W 102°19'0 0.0 1021.1 -18.8
2017-Dec-06 03:50N 70°28' W 102°19'0 0.0 1021.5 -19.1
2017-Dec-06 03:40N 70°28' W 102°19'1 5.1 1021.5 -19.2
2017-Dec-06 03:30N 70°28' W 102°17'0 0.0 1021.7 -19.3
2017-Dec-06 02:40N 70°28' W 102°17'0 0.0 1022.1 -20.0
2017-Dec-06 02:20N 70°28' W 102°17'1 1.8 1022.2 -20.3
2017-Dec-06 02:00N 70°28' W 102°17'0 2.4 1022.5 -20.6
2017-Dec-06 01:50N 70°28' W 102°18'0 0.0 1022.6 -20.7
2017-Dec-06 01:40N 70°28' W 102°18'0 0.0 1022.6 -20.9
2017-Dec-06 01:00N 70°28' W 102°18'0 0.0 1022.9 -21.4
2017-Dec-06 00:40N 70°28' W 102°18'0 0.0 1022.8 -21.8
2017-Dec-06 00:30N 70°28' W 102°18'0 0.0 1023.2 -22.0
2017-Dec-06 00:20N 70°28' W 102°18'0 0.0 1023.3 -22.3
2017-Dec-06 00:10N 70°28' W 102°18'0 0.0 1023.5 -22.6
2017-Dec-06 00:00N 70°28' W 102°18'0 0.0 1023.6 -22.7
2017-Dec-05 23:20N 70°28' W 102°18'0 0.0 1024.1 -23.8
2017-Dec-05 22:50N 70°28' W 102°18'0 1.2 1024.4 -24.8
2017-Dec-05 22:40N 70°28' W 102°19'0 1.2 1024.4 -25.1
2017-Dec-05 22:30N 70°28' W 102°18'1 0.9 1024.6 -25.4
2017-Dec-05 21:50N 70°28' W 102°18'1 4.3 1024.7 -27.1
2017-Dec-05 21:40N 70°28' W 102°17'0 0.0 1024.8 -27.6
2017-Dec-05 21:20N 70°28' W 102°17'1 3.6 1025.0 -28.2
2017-Dec-05 21:10N 70°28' W 102°19'0 0.0 1025.0 -28.5
2017-Dec-05 21:00N 70°28' W 102°19'0 0.0 1025.1 -28.8
2017-Dec-05 20:50N 70°28' W 102°19'0 2.4 1025.1 -29.1
2017-Dec-05 20:40N 70°28' W 102°17'0 0.0 1025.1 -29.5
2017-Dec-05 20:00N 70°28' W 102°17'0 0.0 1025.2 -31.1
2017-Dec-05 19:30N 70°28' W 102°17'1 3.8 1025.5 -32.1
2017-Dec-05 19:20N 70°28' W 102°17'1 3.8 1025.5 -32.5
2017-Dec-05 19:10N 70°28' W 102°17'0 0.0 1025.4 -32.7
2017-Dec-05 19:00N 70°28' W 102°17'0 0.2 1025.5 -32.7
2017-Dec-05 17:50N 70°28' W 102°17'1 4.8 1025.8 -31.4
2017-Dec-05 17:40N 70°28' W 102°19'0 2.4 1025.7 -31.4
2017-Dec-05 17:30N 70°28' W 102°18'0 0.0 1025.7 -31.2
2017-Dec-05 16:50N 70°28' W 102°18'0 0.0 1025.4 -30.5
2017-Dec-05 16:10N 70°28' W 102°18'0 1.2 1025.2 -29.4
2017-Dec-05 16:00N 70°28' W 102°17'0 1.2 1025.2 -29.1
2017-Dec-05 15:50N 70°28' W 102°18'0 1.2 1025.2 -28.9
2017-Dec-05 15:40N 70°28' W 102°17'0 0.3 1025.4 -28.6
2017-Dec-05 15:00N 70°28' W 102°18'0 0.4 1025.2 -28.0
2017-Dec-05 14:30N 70°28' W 102°17'0 0.0 1025.1 -28.0
2017-Dec-05 14:20N 70°28' W 102°17'0 0.0 1025.1 -28.0
2017-Dec-05 14:10N 70°28' W 102°17'0 1.2 1025.2 -28.0
2017-Dec-05 14:00N 70°28' W 102°18'0 1.2 1025.1 -28.0
2017-Dec-05 13:50N 70°28' W 102°17'0 0.0 -28.0
2017-Dec-05 13:00N 70°28' W 102°17'0 1.2 1024.8 -28.1
2017-Dec-05 12:50N 70°28' W 102°18'0 1.2 1024.8 -28.2
2017-Dec-05 12:40N 70°28' W 102°17'0 0.0 1024.8 -28.2
2017-Dec-05 12:30N 70°28' W 102°17'0 0.0 1025.0 -28.3
2017-Dec-05 12:20N 70°28' W 102°17'0 1.2 1024.8 -28.3
2017-Dec-05 12:10N 70°28' W 102°18'0 0.0 1024.8 -28.3
2017-Dec-05 11:10N 70°28' W 102°18'0 0.0 1024.7 -28.6
2017-Dec-05 11:00N 70°28' W 102°18'0 0.0 -28.6
2017-Dec-05 10:40N 70°28' W 102°18'0 0.0 1024.7 -28.7
2017-Dec-05 10:30N 70°28' W 102°18'0 0.0 1024.7 -28.7
2017-Dec-05 09:30N 70°28' W 102°18'0 0.0 1024.3 -28.6
2017-Dec-05 09:20N 70°28' W 102°18'0 0.0 1024.1 -28.5
2017-Dec-05 09:00N 70°28' W 102°18'0 0.0 1024.0 -28.5
2017-Dec-05 08:50N 70°28' W 102°18'0 0.3 1024.0
2017-Dec-05 08:10N 70°28' W 102°17'0 0.0 1023.7 -28.4
2017-Dec-05 07:50N 70°28' W 102°17'0 0.0 1023.7 -28.4
2017-Dec-05 07:40N 70°28' W 102°17'0 0.0 1023.7 -28.4
2017-Dec-05 07:20N 70°28' W 102°17'0 0.2 1023.6 -28.2
2017-Dec-05 06:30N 70°28' W 102°18'0 0.0 1023.3 -27.8
2017-Dec-05 06:20N 70°28' W 102°18'0 0.0 1023.2 -27.8
2017-Dec-05 05:50N 70°28' W 102°18'0 0.0 1023.2 -27.7
2017-Dec-05 05:40N 70°28' W 102°18'0 0.0 1023.3 -27.7
2017-Dec-05 05:30N 70°28' W 102°18'0 0.0 1023.2 -27.7
2017-Dec-05 05:20N 70°28' W 102°18'0 0.0 1023.1 -27.7
2017-Dec-05 04:40N 70°28' W 102°18'0 0.4 1022.9 -27.6
2017-Dec-05 04:10N 70°28' W 102°19'0 1.2 1022.6 -27.4
2017-Dec-05 04:00N 70°28' W 102°18'0 0.0 1022.6 -27.4
2017-Dec-05 03:50N 70°28' W 102°18'0 1.2 1022.6 -27.4
2017-Dec-05 03:40N 70°28' W 102°17'0 0.0 1022.4 -27.4
2017-Dec-05 03:00N 70°28' W 102°17'0 0.4 1022.1 -27.5
2017-Dec-05 02:30N 70°28' W 102°18'0 0.0 1022.0 -27.6
2017-Dec-05 02:20N 70°28' W 102°18'0 0.0 1022.0 -27.7
2017-Dec-05 02:10N 70°28' W 102°18'0 0.0 1022.0 -27.7
2017-Dec-05 02:00N 70°28' W 102°18'0 0.0 1022.2 -27.7
2017-Dec-05 01:20N 70°28' W 102°18'0 0.0 1022.4 -27.7
2017-Dec-05 00:50N 70°28' W 102°18'0 0.0 1022.4 -27.5
2017-Dec-05 00:40N 70°28' W 102°18'1 4.3 1022.2 -27.5
2017-Dec-05 00:30N 70°28' W 102°19'1 4.3 1022.2 -27.4
2017-Dec-05 00:20N 70°28' W 102°18'0 0.0 1022.4 -27.4
2017-Dec-04 23:50N 70°28' W 102°18'0 0.0 1022.6 -27.6
2017-Dec-04 23:40N 70°28' W 102°18'0 0.4 1022.5 -27.6
2017-Dec-04 23:10N 70°28' W 102°17'0 1.2 1022.5 -27.7
2017-Dec-04 23:00N 70°28' W 102°18'0 0.0 1022.6 -27.8
2017-Dec-04 22:50N 70°28' W 102°18'0 0.0 1022.6 -27.8
2017-Dec-04 22:40N 70°28' W 102°18'0 0.6 1022.6 -27.9
2017-Dec-04 22:00N 70°28' W 102°19'1 1.2 1022.8 -28.2
2017-Dec-04 21:30N 70°28' W 102°17'1 3.8 1022.6 -28.4
2017-Dec-04 21:20N 70°28' W 102°18'0 0.0 1022.8 -28.4
2017-Dec-04 21:00N 70°28' W 102°18'0 0.0 1022.6 -28.5
2017-Dec-04 20:50N 70°28' W 102°18'0 0.0 1022.6
2017-Dec-04 20:00N 70°28' W 102°18'0 1.2 1022.5 -29.0
2017-Dec-04 19:50N 70°28' W 102°19'0 1.2 1022.5 -29.1
2017-Dec-04 19:40N 70°28' W 102°18'0 0.0 1022.6 -29.2
2017-Dec-04 19:30N 70°28' W 102°18'1 3.6 1022.5
2017-Dec-04 19:20N 70°28' W 102°18'0 0.0 1022.4 -29.5
2017-Dec-04 18:50N 70°28' W 102°18'0 0.0 1022.2 -29.9
2017-Dec-04 18:20N 70°28' W 102°18'1 3.6 1022.4 -30.3
2017-Dec-04 18:10N 70°28' W 102°18'1 3.8 1022.4 -30.4
2017-Dec-04 18:00N 70°28' W 102°17'0 0.0 1022.2 -30.6
2017-Dec-04 17:50N 70°28' W 102°17'0 0.0 1022.2
2017-Dec-04 17:40N 70°28' W 102°17'0 0.0 1022.4 -30.8
2017-Dec-04 17:30N 70°28' W 102°17'0 1.2 1022.4
2017-Dec-04 17:10N 70°28' W 102°19'1 5.1 1022.2 -31.4
2017-Dec-04 17:00N 70°28' W 102°17'0 1.2 1022.4 -31.4
2017-Dec-04 16:40N 70°28' W 102°18'0 0.0 1022.4 -31.8
2017-Dec-04 16:30N 70°28' W 102°18'1 3.6 1022.4
2017-Dec-04 16:20N 70°28' W 102°18'1 7.0 1022.2 -32.1
2017-Dec-04 16:10N 70°29' W 102°21'1 8.1 1022.2
2017-Dec-04 16:00N 70°28' W 102°17'0 0.0 1022.2 -32.3
2017-Dec-04 15:50N 70°28' W 102°17'0 0.0 1022.2 -32.4
2017-Dec-04 15:00N 70°28' W 102°17'0 0.0 1022.0 -32.9
2017-Dec-04 14:50N 70°28' W 102°17'0 2.4 1022.0 -32.9
2017-Dec-04 14:40N 70°28' W 102°19'0 2.4 -32.9
2017-Dec-04 14:30N 70°28' W 102°17'0 0.0 1022.0
2017-Dec-04 14:20N 70°28' W 102°17'0 0.0 1022.0 -33.1
2017-Dec-04 14:10N 70°28' W 102°17'0 0.0 1022.0 -33.1
2017-Dec-04 13:10N 70°28' W 102°17'1 4.3 1021.8 -33.1
2017-Dec-04 13:00N 70°28' W 102°16'1 3.6 1021.7 -33.0
2017-Dec-04 12:50N 70°28' W 102°16'0 1.2 1021.5 -33.0
2017-Dec-04 12:40N 70°28' W 102°17'0 2.4 1021.4 -32.9
2017-Dec-04 12:30N 70°28' W 102°18'0 0.0 1021.4 -32.9
2017-Dec-04 11:40N 70°28' W 102°18'0 0.0 1021.3 -32.1
2017-Dec-04 11:30N 70°28' W 102°18'0 1.2 1021.3 -32.0
2017-Dec-04 11:20N 70°28' W 102°19'0 0.0 1021.1 -31.8
2017-Dec-04 11:10N 70°28' W 102°19'0 1.2 1021.1
2017-Dec-04 11:00N 70°28' W 102°18'0 0.0 1021.3 -31.4
2017-Dec-04 10:50N 70°28' W 102°18'0 0.0 1021.1 -31.3
2017-Dec-04 09:50N 70°28' W 102°18'0 0.0 1021.0 -31.5
2017-Dec-04 09:40N 70°28' W 102°18'0 0.0 1020.7 -31.5
2017-Dec-04 09:30N 70°28' W 102°18'0 0.0 1020.9 -31.6
2017-Dec-04 09:20N 70°28' W 102°18'0 0.0
2017-Dec-04 08:00N 70°28' W 102°18'0 0.0 1020.7 -32.0
2017-Dec-04 07:50N 70°28' W 102°18'0 0.2 -32.0
2017-Dec-04 06:50N 70°28' W 102°19'0 0.0 1020.0 -31.8
2017-Dec-04 06:40N 70°28' W 102°19'0 1.2 1020.0 -31.8
2017-Dec-04 06:20N 70°28' W 102°17'0 0.0 1019.8 -31.8
2017-Dec-04 06:10N 70°28' W 102°17'0 1.2 1019.8 -31.9
2017-Dec-04 06:00N 70°28' W 102°18'0 0.0 1019.6 -31.9
2017-Dec-04 05:40N 70°28' W 102°18'0 0.0 1019.4 -32.0
2017-Dec-04 05:10N 70°28' W 102°18'1 8.7 1019.2 -32.0
2017-Dec-04 05:00N 70°27' W 102°20'1 4.3 1019.1 -31.9
2017-Dec-04 04:40N 70°28' W 102°18'1 8.7 1018.8 -31.9
2017-Dec-04 04:30N 70°27' W 102°20'1 8.7 1018.8 -31.9
2017-Dec-04 04:20N 70°28' W 102°18'0 0.0 1018.8 -31.9
2017-Dec-04 04:10N 70°28' W 102°18'0 0.0 1018.8 -32.1
2017-Dec-04 04:00N 70°28' W 102°18'0 0.0 1018.7 -32.1
2017-Dec-04 03:50N 70°28' W 102°18'0 0.0 1018.5 -32.1
2017-Dec-04 03:30N 70°28' W 102°18'0 0.0 1018.3 -32.2
2017-Dec-04 03:20N 70°28' W 102°18'1 1.9 1018.3 -32.3
2017-Dec-04 03:00N 70°28' W 102°17'0 0.0 1018.3 -32.5
2017-Dec-04 02:50N 70°28' W 102°17'1 3.8 1018.0 -32.5
2017-Dec-04 02:40N 70°28' W 102°18'0 0.0 1018.1 -32.6
2017-Dec-04 02:30N 70°28' W 102°18'0 0.0 1018.1 -32.7
2017-Dec-04 02:20N 70°28' W 102°18'0 0.0 1017.8 -32.8
2017-Dec-04 02:10N 70°28' W 102°18'0 0.0 1018.0 -32.9
2017-Dec-04 01:50N 70°28' W 102°18'0 0.0 1017.8 -33.1
2017-Dec-04 01:40N 70°28' W 102°18'0 0.6 1017.7 -33.3
2017-Dec-04 01:20N 70°28' W 102°19'0 1.2 1017.4 -33.5
2017-Dec-04 01:10N 70°28' W 102°18'0 1.2 -33.5
2017-Dec-04 01:00N 70°28' W 102°19'0 1.2 1017.3 -33.5
2017-Dec-04 00:50N 70°28' W 102°18'0 0.0 1017.0 -33.5
2017-Dec-04 00:40N 70°28' W 102°18'0 0.0 1016.9 -33.5
2017-Dec-04 00:30N 70°28' W 102°18'0 0.0 1016.9 -33.5
2017-Dec-04 00:20N 70°28' W 102°18'0 0.0 1016.9
2017-Dec-04 00:00N 70°28' W 102°18'0 0.0 1017.0 -33.3
2017-Dec-03 23:40N 70°28' W 102°18'0 0.0 1016.8 -33.2
2017-Dec-03 23:30N 70°28' W 102°18'0 0.0 1016.6 -33.2
2017-Dec-03 23:20N 70°28' W 102°18'0 0.0 1016.5 -33.1
2017-Dec-03 23:10N 70°28' W 102°18'0 0.0 1016.5 -33.1
2017-Dec-03 23:00N 70°28' W 102°18'0 0.0 1016.3 -33.1
2017-Dec-03 22:50N 70°28' W 102°18'0 0.0 1016.2 -33.0
2017-Dec-03 22:20N 70°28' W 102°18'0 0.0 1015.9 -32.9
2017-Dec-03 22:00N 70°28' W 102°18'0 0.0 1015.8 -32.9
2017-Dec-03 21:50N 70°28' W 102°18'0 0.0 1015.8 -32.9
2017-Dec-03 21:40N 70°28' W 102°18'0 1.2 1015.7 -32.9
2017-Dec-03 21:30N 70°28' W 102°17'0 0.0 1015.5 -32.9
2017-Dec-03 21:10N 70°28' W 102°17'1 1.8 1015.2 -32.8
2017-Dec-03 20:50N 70°28' W 102°17'1 3.8 1015.2 -32.6
2017-Dec-03 20:40N 70°28' W 102°18'0 0.0 1015.1 -32.5
2017-Dec-03 20:20N 70°28' W 102°18'0 0.0 1015.0 -32.5
2017-Dec-03 20:10N 70°28' W 102°18'0 0.0 1015.0 -32.5
2017-Dec-03 20:00N 70°28' W 102°18'0 0.0 1014.7 -32.6
2017-Dec-03 19:50N 70°28' W 102°18'0 0.0 1014.7 -32.7
2017-Dec-03 19:40N 70°28' W 102°18'0 0.0 1014.7 -32.8
2017-Dec-03 19:30N 70°28' W 102°18'0 0.4 1014.6 -32.9
2017-Dec-03 19:00N 70°28' W 102°17'0 0.0 1014.3 -33.5
2017-Dec-03 18:40N 70°28' W 102°17'0 0.0 1014.2 -33.6
2017-Dec-03 18:30N 70°28' W 102°17'0 0.0 1014.2 -33.6
2017-Dec-03 18:20N 70°28' W 102°17'0 1.2 1014.0 -33.6
2017-Dec-03 18:10N 70°28' W 102°18'0 0.0 1013.9 -33.6
2017-Dec-03 18:00N 70°28' W 102°18'0 0.0 1013.7 -33.6
2017-Dec-03 17:50N 70°28' W 102°18'0 0.0 1013.7 -33.5
2017-Dec-03 17:00N 70°28' W 102°18'0 0.0 1013.2 -33.3
2017-Dec-03 16:40N 70°28' W 102°18'0 0.0 1012.9 -33.2
2017-Dec-03 16:30N 70°28' W 102°18'1 5.1 1012.9 -33.2
2017-Dec-03 16:20N 70°28' W 102°16'0 0.0 1012.9 -33.1
2017-Dec-03 16:10N 70°28' W 102°16'1 2.2 1012.9 -33.0
2017-Dec-03 15:50N 70°28' W 102°17'0 0.0 1012.6 -33.0
2017-Dec-03 15:20N 70°28' W 102°17'0 1.2 1012.5 -33.0
2017-Dec-03 15:10N 70°28' W 102°18'0 0.0 1012.4 -33.1
2017-Dec-03 15:00N 70°28' W 102°18'0 0.0 1012.2 -33.1
2017-Dec-03 14:50N 70°28' W 102°18'0 0.0 1012.2 -33.1
2017-Dec-03 14:30N 70°28' W 102°18'0 0.0 1012.1 -33.1
2017-Dec-03 13:40N 70°28' W 102°18'0 0.0 1011.6 -33.0
2017-Dec-03 13:20N 70°28' W 102°18'0 0.0 1011.3 -33.0
2017-Dec-03 13:10N 70°28' W 102°18'0 0.6 1011.3 -33.1
2017-Dec-03 12:50N 70°28' W 102°17'0 0.2 1011.3 -33.3
2017-Dec-03 12:00N 70°28' W 102°18'0 0.0 1011.0 -32.9
2017-Dec-03 11:40N 70°28' W 102°18'0 1.2 1010.9 -32.7
2017-Dec-03 11:30N 70°28' W 102°19'0 0.6 1010.9 -32.6
2017-Dec-03 11:10N 70°28' W 102°18'0 0.0 1010.6 -32.3
2017-Dec-03 11:00N 70°28' W 102°18'0 0.0 1010.6 -32.1
2017-Dec-03 10:10N 70°28' W 102°18'0 0.0 1010.2
2017-Dec-03 10:00N 70°28' W 102°18'0 0.0 1010.0 -31.5
2017-Dec-03 09:50N 70°28' W 102°18'0 0.0 1009.9 -31.4
2017-Dec-03 08:30N 70°28' W 102°18'0 0.0 1009.8 -30.1
2017-Dec-03 08:20N 70°28' W 102°18'0 0.0 1009.8 -30.0
2017-Dec-03 08:10N 70°28' W 102°18'0 0.0 1009.8 -29.9
2017-Dec-03 07:10N 70°28' W 102°18'0 0.0 1009.2 -29.1
2017-Dec-03 07:00N 70°28' W 102°18'0 0.0 1009.2
2017-Dec-03 06:50N 70°28' W 102°18'0 0.0 1009.1 -28.9
2017-Dec-03 06:40N 70°28' W 102°18'0 0.0 1009.0 -28.8
2017-Dec-03 06:20N 70°28' W 102°18'0 0.0 1009.0 -28.6
2017-Dec-03 05:50N 70°28' W 102°18'0 0.0 1008.7 -28.4
2017-Dec-03 05:30N 70°28' W 102°18'0 0.0 1008.5 -28.2
2017-Dec-03 05:20N 70°28' W 102°18'0 0.0 1008.5 -28.2
2017-Dec-03 05:10N 70°28' W 102°18'0 0.0 1008.4 -28.3
2017-Dec-03 05:00N 70°28' W 102°18'0 0.0 1008.4 -28.4
2017-Dec-03 04:40N 70°28' W 102°18'0 0.0 1008.1 -28.5
2017-Dec-03 04:30N 70°28' W 102°18'0 0.0 1008.1
2017-Dec-03 04:10N 70°28' W 102°18'0 0.0 1008.3 -28.5
2017-Dec-03 03:50N 70°28' W 102°18'0 0.0 1008.1 -28.4
2017-Dec-03 03:40N 70°28' W 102°18'0 0.0 1008.0 -28.4
2017-Dec-03 03:30N 70°28' W 102°18'0 0.0 1008.1 -28.4
2017-Dec-03 03:20N 70°28' W 102°18'0 0.6 1008.1 -28.3
2017-Dec-03 03:00N 70°28' W 102°17'0 0.0 1008.0 -28.2
2017-Dec-03 02:30N 70°28' W 102°17'0 2.4 1007.7 -27.9
2017-Dec-03 02:20N 70°28' W 102°19'0 0.0 1007.6 -27.7
2017-Dec-03 02:10N 70°28' W 102°19'0 0.0 1007.6 -27.5
2017-Dec-03 02:00N 70°28' W 102°19'0 1.2 1007.6 -27.3
2017-Dec-03 01:50N 70°28' W 102°18'0 0.0 1007.6 -27.2
2017-Dec-03 01:40N 70°28' W 102°18'0 0.0 1007.6 -27.0
2017-Dec-03 01:20N 70°28' W 102°18'0 1.2 1007.6 -26.8
2017-Dec-03 01:10N 70°28' W 102°17'0 0.0 1007.6 -26.6
2017-Dec-03 00:50N 70°28' W 102°17'0 1.2 1007.6 -26.4
2017-Dec-03 00:40N 70°28' W 102°18'0 0.0 1007.6 -26.4
2017-Dec-03 00:20N 70°28' W 102°18'0 0.0 1007.4 -26.6
2017-Dec-03 00:10N 70°28' W 102°18'0 0.0 1007.3 -26.8
2017-Dec-03 00:00N 70°28' W 102°18'0 0.0 1007.3 -26.9
2017-Dec-02 23:40N 70°28' W 102°18'0 0.0 1007.3 -27.4
2017-Dec-02 23:30N 70°28' W 102°18'0 0.0 1007.2 -27.6
2017-Dec-02 23:20N 70°28' W 102°18'0 0.0 1007.2
2017-Dec-02 23:10N 70°28' W 102°18'1 7.3 1007.2 -27.9
2017-Dec-02 23:00N 70°27' W 102°19'1 7.3 1007.2 -28.1
2017-Dec-02 22:50N 70°28' W 102°18'1 7.3 1007.2 -28.1
2017-Dec-02 22:40N 70°27' W 102°19'1 7.3 1007.0 -28.2
2017-Dec-02 22:30N 70°28' W 102°18'0 0.0 1007.0 -28.3
2017-Dec-02 22:20N 70°28' W 102°18'0 0.0 1006.9 -28.3
2017-Dec-02 22:10N 70°28' W 102°18'0 1.2
2017-Dec-02 22:00N 70°28' W 102°17'0 0.0 1006.8 -28.4
2017-Dec-02 21:50N 70°28' W 102°17'0 1.2 1006.8 -28.4
2017-Dec-02 21:40N 70°28' W 102°18'0 0.0 1006.8 -28.4
2017-Dec-02 21:30N 70°28' W 102°18'1 3.6 1006.8 -28.5
2017-Dec-02 21:20N 70°28' W 102°18'0 0.0 1006.8
2017-Dec-02 21:00N 70°28' W 102°18'0 0.0 1006.6 -28.4
2017-Dec-02 20:40N 70°28' W 102°18'1 3.6 1006.6 -28.4
2017-Dec-02 20:30N 70°28' W 102°18'0 1.2 1006.6 -28.4
2017-Dec-02 20:20N 70°28' W 102°19'0 0.0 1006.5 -28.4
2017-Dec-02 20:10N 70°28' W 102°19'1 3.8 1006.4 -28.3
2017-Dec-02 20:00N 70°28' W 102°18'0 0.0 1006.4 -28.1
2017-Dec-02 19:50N 70°28' W 102°18'1 3.6 1006.2 -28.0
2017-Dec-02 19:40N 70°28' W 102°18'0 0.0 1006.2 -27.8
2017-Dec-02 19:10N 70°28' W 102°18'0 0.0 1006.1 -27.4
2017-Dec-02 19:00N 70°28' W 102°18'0 0.0 1006.1 -27.2
2017-Dec-02 18:50N 70°28' W 102°18'0 0.0 1006.1 -27.0
2017-Dec-02 18:40N 70°28' W 102°18'0 0.0 1006.1 -26.8
2017-Dec-02 18:30N 70°28' W 102°18'0 1.2 1006.1 -26.6
2017-Dec-02 18:20N 70°28' W 102°17'0 0.0 1006.1 -26.4
2017-Dec-02 18:10N 70°28' W 102°17'0 0.0 1006.1 -26.2
2017-Dec-02 18:00N 70°28' W 102°17'1 3.6 1006.1 -26.0
2017-Dec-02 17:50N 70°28' W 102°19'0 1.2 1006.1 -25.7
2017-Dec-02 17:30N 70°28' W 102°18'0 0.0 1006.1 -25.2
2017-Dec-02 17:20N 70°28' W 102°18'0 0.0 1005.9 -24.9
2017-Dec-02 17:10N 70°28' W 102°18'0 1.2 1005.8 -24.6
2017-Dec-02 17:00N 70°28' W 102°19'0 1.2 1005.8 -24.3
2017-Dec-02 16:50N 70°28' W 102°18'0 0.0 1005.8 -24.0
2017-Dec-02 16:40N 70°28' W 102°18'0 1.2 1005.8 -23.6
2017-Dec-02 16:30N 70°28' W 102°17'0 0.0 1005.8 -23.2
2017-Dec-02 16:20N 70°28' W 102°17'0 0.0 1005.8 -22.9
2017-Dec-02 16:00N 70°28' W 102°17'0 0.0 1005.7 -22.2
2017-Dec-02 15:50N 70°28' W 102°17'0 0.0 1005.5 -21.9
2017-Dec-02 15:40N 70°28' W 102°17'0 0.0 1005.4 -21.6
2017-Dec-02 15:30N 70°28' W 102°17'0 1.2 1005.4 -21.3
2017-Dec-02 15:20N 70°28' W 102°18'0 0.0 1005.4 -21.2
2017-Dec-02 15:10N 70°28' W 102°18'0 0.0 1005.5 -21.1
2017-Dec-02 15:00N 70°28' W 102°18'0 0.0 1005.4 -21.1
2017-Dec-02 14:50N 70°28' W 102°18'0 0.0 1005.5 -21.0
2017-Dec-02 14:40N 70°28' W 102°18'0 0.0 1005.5 -20.9
2017-Dec-02 14:10N 70°28' W 102°18'0 0.0 1005.4 -20.7
2017-Dec-02 14:00N 70°28' W 102°18'0 0.0 1005.3 -20.7
2017-Dec-02 13:50N 70°28' W 102°18'0 0.0 1005.3 -20.6
2017-Dec-02 13:30N 70°28' W 102°18'0 0.0 1005.4 -20.4
2017-Dec-02 13:20N 70°28' W 102°18'0 0.0 1005.4 -20.4
2017-Dec-02 13:00N 70°28' W 102°18'0 0.0 1005.1 -20.2
2017-Dec-02 12:50N 70°28' W 102°18'0 0.0 1005.1
2017-Dec-02 12:30N 70°28' W 102°18'0 0.0 1005.0 -19.9
2017-Dec-02 12:20N 70°28' W 102°18'0 0.0 1005.1 -19.8
2017-Dec-02 12:10N 70°28' W 102°18'0 0.0 1005.0 -19.8
2017-Dec-02 11:50N 70°28' W 102°18'0 0.0 1005.0 -19.7
2017-Dec-02 11:40N 70°28' W 102°18'0 0.6 1004.8 -19.7
2017-Dec-02 11:20N 70°28' W 102°17'0 0.0 1004.8 -19.6
2017-Dec-02 11:10N 70°28' W 102°17'0 0.4 -19.6
2017-Dec-02 10:40N 70°28' W 102°17'0 2.4 1004.6 -19.3
2017-Dec-02 10:30N 70°28' W 102°18'0 0.0 1004.6 -19.3
2017-Dec-02 10:10N 70°28' W 102°18'0 0.0 1004.6 -19.2
2017-Dec-02 10:00N 70°28' W 102°18'0 0.0 1004.6 -19.2
2017-Dec-02 09:00N 70°28' W 102°18'0 0.0 1004.3 -19.1
2017-Dec-02 08:50N 70°28' W 102°18'0 0.0 1004.2 -19.1
2017-Dec-02 08:20N 70°28' W 102°18'1 0.7 1004.2 -19.1
2017-Dec-02 07:30N 70°28' W 102°16'1 3.6 1004.0 -19.2
2017-Dec-02 07:20N 70°28' W 102°18'0 0.0 1004.0 -19.2
2017-Dec-02 07:10N 70°28' W 102°18'0 0.0 1004.0 -19.2
2017-Dec-02 06:40N 70°28' W 102°18'0 0.0 1003.9 -19.3
2017-Dec-02 06:30N 70°28' W 102°18'0 0.0 1003.9 -19.3
2017-Dec-02 05:50N 70°28' W 102°18'0 0.0 1003.9 -19.4
2017-Dec-02 05:40N 70°28' W 102°18'0 0.0 1003.8 -19.5
2017-Dec-02 05:30N 70°28' W 102°18'0 0.0 1003.6 -19.5
2017-Dec-02 05:00N 70°28' W 102°18'1 0.9 1003.3
2017-Dec-02 04:20N 70°29' W 102°19'1 3.8 1003.1 -19.6
2017-Dec-02 04:10N 70°28' W 102°18'0 0.0 1003.1 -19.7
2017-Dec-02 04:00N 70°28' W 102°18'0 0.0 1003.1 -19.7
2017-Dec-02 03:50N 70°28' W 102°18'0 0.0 1003.2 -19.8
2017-Dec-02 03:40N 70°28' W 102°18'0 0.6 -19.8
2017-Dec-02 03:20N 70°28' W 102°17'0 0.3 1003.1 -19.9
2017-Dec-02 02:40N 70°28' W 102°18'0 0.0 1002.8 -20.2
2017-Dec-02 02:30N 70°28' W 102°18'0 0.0 1002.8 -20.3
2017-Dec-02 02:20N 70°28' W 102°18'0 0.0 1002.7 -20.4
2017-Dec-02 02:10N 70°28' W 102°18'0 0.0 1002.5 -20.4
2017-Dec-02 02:00N 70°28' W 102°18'0 0.0 1002.4 -20.5
2017-Dec-02 01:40N 70°28' W 102°18'0 0.0 1002.4 -20.6
2017-Dec-02 01:20N 70°28' W 102°18'0 0.0 1002.2 -20.8
2017-Dec-02 01:00N 70°28' W 102°18'0 0.0 1002.1 -20.9
2017-Dec-02 00:50N 70°28' W 102°18'0 0.0 1002.1 -21.0
2017-Dec-02 00:40N 70°28' W 102°18'0 0.0 1002.0 -21.0
2017-Dec-02 00:30N 70°28' W 102°18'0 0.0 1002.1 -21.1
2017-Dec-02 00:20N 70°28' W 102°18'0 0.0 1002.0 -21.1
2017-Dec-02 00:00N 70°28' W 102°18'0 0.0 1002.0 -21.3
2017-Dec-01 23:50N 70°28' W 102°18'1 3.8 1002.0
2017-Dec-01 23:40N 70°28' W 102°17'1 3.8 1001.8 -21.5
2017-Dec-01 23:30N 70°28' W 102°18'0 0.0 1001.8 -21.5
2017-Dec-01 23:20N 70°28' W 102°18'0 0.0 1001.8 -21.5
2017-Dec-01 23:10N 70°28' W 102°18'0 0.0 1001.8 -21.5
2017-Dec-01 23:00N 70°28' W 102°18'0 1.2 1001.7 -21.4
2017-Dec-01 22:50N 70°28' W 102°17'0 1.2 1001.7 -21.2
2017-Dec-01 22:40N 70°28' W 102°18'0 0.6 1001.6 -21.1
2017-Dec-01 22:20N 70°28' W 102°17'0 0.0 1001.4 -20.9
2017-Dec-01 22:00N 70°28' W 102°17'0 1.2 1001.4 -20.8
2017-Dec-01 21:50N 70°28' W 102°18'0 0.0 1001.3 -20.8
2017-Dec-01 21:40N 70°28' W 102°18'0 0.0 1001.3 -20.8
2017-Dec-01 21:30N 70°28' W 102°18'0 0.0 1001.2 -20.8
2017-Dec-01 21:20N 70°28' W 102°18'0 0.0 1001.2 -20.9
2017-Dec-01 21:10N 70°28' W 102°18'0 0.0 1001.2 -21.0
2017-Dec-01 21:00N 70°28' W 102°18'0 0.0
2017-Dec-01 20:50N 70°28' W 102°18'0 0.0 1000.9 -21.1
2017-Dec-01 20:40N 70°28' W 102°18'0 0.0 1000.9 -21.1
2017-Dec-01 20:20N 70°28' W 102°18'0 1.2 1000.7 -21.3
2017-Dec-01 20:10N 70°28' W 102°19'0 0.0 1000.7 -21.5
2017-Dec-01 20:00N 70°28' W 102°19'0 0.0 1000.6 -21.6
2017-Dec-01 19:50N 70°28' W 102°19'0 0.6 1000.6
2017-Dec-01 19:30N 70°28' W 102°18'0 0.0 1000.5 -21.9
2017-Dec-01 19:10N 70°28' W 102°18'0 0.0 1000.3 -22.3
2017-Dec-01 19:00N 70°28' W 102°18'0 0.0 1000.3 -22.6
2017-Dec-01 18:40N 70°28' W 102°18'0 0.0 1000.1 -22.9
2017-Dec-01 18:30N 70°28' W 102°18'0 0.0 1000.1 -23.3
2017-Dec-01 18:20N 70°28' W 102°18'0 0.0 1000.1 -23.2
2017-Dec-01 18:10N 70°28' W 102°18'0 0.0 1000.1 -23.3
2017-Dec-01 17:50N 70°28' W 102°18'0 0.0 999.9 -23.7
2017-Dec-01 17:30N 70°28' W 102°18'0 0.0 999.6 -24.0
2017-Dec-01 17:20N 70°28' W 102°18'0 0.0 999.8 -24.1
2017-Dec-01 17:00N 70°28' W 102°18'0 0.0 999.8 -24.5
2017-Dec-01 16:50N 70°28' W 102°18'0 0.0 999.8 -24.7
2017-Dec-01 16:40N 70°28' W 102°18'0 0.0 999.6 -24.8
2017-Dec-01 16:30N 70°28' W 102°18'   999.6 -24.9

Dump ship's entire track history